AA1531 / N9017P 7700 Squawk Report (12th of December, 2018)

Aircraft A319 Reg No. N9017P Age 5 years old
Model A319 Jet engines 2 First flight 22-04-14
Registered 06-05-14 Rollout 04-14 Delivered 06-05-14
Construction No. 6085 Line No. N/A Series 115(SL)
ADSHEX AC763E Airline name American Airlines Owner N/A
Airfield based Dallas-Fort Worth~TX~N First tracked 2017-07-13 13:30:00

Flight history for N9017P

Route Flight No Date Playback
Dallas Fort Worth (DFW) - Hartsfield Jackson Atlanta Intl (ATL) AA2485 2019-10-18 02:56:00
Dallas Fort Worth (DFW) - Eglin Afb (VPS) - Dallas Fort Worth (DFW) AA1364 2019-10-18 01:50:00
Dallas Fort Worth (DFW) - General Mitchell Intl (MKE) - Dallas Fort Worth (DFW) AA2762 2019-10-17 16:55:00
Eldorado Intl (BOG) - Dallas Fort Worth (DFW) AA1122 2019-10-17 12:00:00
Miami Intl (MIA) - Eldorado Intl (BOG) AA915 2019-10-17 04:22:00
Toronto Pearson International (YYZ) - Miami Intl (MIA) AA2676 2019-10-16 19:50:00
Antonio Maceo Intl (SCU) - Miami Intl (MIA) AA1138 2019-10-16 02:21:00
Miami Intl (MIA) - Antonio Maceo Intl (SCU) AA1139 2019-10-15 22:58:00
Miami Intl (MIA) - Daniel Oduber Quiros Intl (LIR) - Miami Intl (MIA) AA972 2019-10-15 20:47:00
Raleigh Durham Intl (RDU) - Miami Intl (MIA) AA1088 2019-10-15 12:50:00
Miami Intl (MIA) - Raleigh Durham Intl (RDU) AA1286 2019-10-15 11:15:00
Toncontin Intl (TGU) - Miami Intl (MIA) AA1531 2019-10-15 02:10:00
Miami Intl (MIA) - Toncontin Intl (TGU) AA961 2019-10-14 18:32:00
Hartsfield Jackson Atlanta Intl (ATL) - Miami Intl (MIA) AA2717 2019-10-14 14:49:00
Eldorado Intl (BOG) - Miami Intl (MIA) AA1126 2019-10-14 10:48:00
Dallas Fort Worth (DFW) - Eldorado Intl (BOG) AA1123 2019-10-14 04:54:00
Dallas Fort Worth (DFW) - Guadalajara International (GDL) - Dallas Fort Worth (DFW) AA387 2019-10-13 22:50:00
Columbia Metropolitan (CAE) - Dallas Fort Worth (DFW) AA1120 2019-10-13 15:35:00
Dallas Fort Worth (DFW) - Columbia Metropolitan (CAE) AA2631 2019-10-13 01:41:00
Adams Fld (LIT) - Dallas Fort Worth (DFW) AA973 2019-10-12 22:23:00
Time Lat Lon Altitude Heading Speed Vertical Rate
2018-12-13 02:33:13 GMT 25.785704 -80.324158 25 87 118 -576
2018-12-13 02:33:10 GMT 25.785690 -80.325371 50 87 117 -576
2018-12-13 02:33:00 GMT 25.785423 -80.331512 150 86 117 -640
2018-12-13 02:32:57 GMT 25.785278 -80.333763 175 86 117 -576
2018-12-13 02:32:47 GMT 25.785004 -80.340019 275 87 117 -640
2018-12-13 02:32:39 GMT 25.784819 -80.344368 350 87 117 -576
2018-12-13 02:32:35 GMT 25.784729 -80.346779 400 87 117 -576
2018-12-13 02:32:28 GMT 25.784586 -80.350586 475 87 117 -576
2018-12-13 02:32:21 GMT 25.784409 -80.354973 525 87 117 -576
2018-12-13 02:32:17 GMT 25.784307 -80.357323 575 87 117 -576
2018-12-13 02:32:13 GMT 25.784180 -80.360413 625 87 118 -576
2018-12-13 02:32:07 GMT 25.784042 -80.363007 675 87 118 -640
2018-12-13 02:31:57 GMT 25.783722 -80.369820 775 87 119 -512
2018-12-13 02:31:50 GMT 25.783493 -80.374504 850 87 120 -576
2018-12-13 02:31:46 GMT 25.783447 -80.375923 875 87 122 -576
2018-12-13 02:31:40 GMT 25.783310 -80.379585 950 87 124 -768
2018-12-13 02:31:36 GMT 25.783190 -80.382713 1,000 87 127 -768
2018-12-13 02:31:29 GMT 25.782944 -80.387932 1,100 87 136 -448
2018-12-13 02:31:25 GMT 25.782852 -80.390419 1,125 87 139 -704
2018-12-13 02:31:18 GMT 25.782669 -80.395454 1,225 87 144 -896
2018-12-13 02:31:14 GMT 25.782583 -80.397430 1,250 87 146 -896
2018-12-13 02:31:06 GMT 25.782211 -80.405479 1,400 87 155 -768
2018-12-13 02:31:03 GMT 25.782166 -80.406242 1,400 87 156 -768
2018-12-13 02:30:53 GMT 25.781885 -80.413857 1,500 87 161 -768
2018-12-13 02:30:43 GMT 25.781479 -80.422974 1,650 87 163 -832
2018-12-13 02:30:36 GMT 25.781235 -80.428993 1,750 86 165 -832
2018-12-13 02:30:32 GMT 25.781113 -80.431213 1,800 86 165 -832
2018-12-13 02:30:22 GMT 25.780746 -80.440269 1,950 87 167 -1024
2018-12-13 02:30:13 GMT 25.780243 -80.451714 2,175 86 168 -1088
2018-12-13 02:30:01 GMT 25.779877 -80.458221 2,300 85 170 -896
2018-12-13 02:29:48 GMT 25.778824 -80.469719 2,500 80 172 -960
2018-12-13 02:29:40 GMT 25.777603 -80.476463 2,600 73 175 -1088
2018-12-13 02:29:37 GMT 25.776901 -80.479279 2,625 70 176 -1152
2018-12-13 02:29:31 GMT 25.774624 -80.485268 2,750 61 179 -320
2018-12-13 02:29:28 GMT 25.773088 -80.488434 2,750 59 181 -64
2018-12-13 02:29:21 GMT 25.770807 -80.492836 2,750 59 185 -64
2018-12-13 02:29:17 GMT 25.768805 -80.496620 2,750 59 185 -64
2018-12-13 02:29:09 GMT 25.765457 -80.503029 2,775 59 187 0
2018-12-13 02:29:05 GMT 25.762985 -80.507660 2,775 59 189 0
2018-12-13 02:28:58 GMT 25.761169 -80.511131 2,775 59 191 0
2018-12-13 02:28:53 GMT 25.758144 -80.516884 2,750 59 198 0
2018-12-13 02:28:48 GMT 25.756256 -80.520378 2,750 59 201 0
2018-12-13 02:28:43 GMT 25.753235 -80.526123 2,750 59 209 -64
2018-12-13 02:28:37 GMT 25.750763 -80.530853 2,750 59 211 0
2018-12-13 02:28:29 GMT 25.747206 -80.537659 2,750 60 211 0
2018-12-13 02:28:26 GMT 25.745453 -80.541130 2,750 60 211 0
2018-12-13 02:28:20 GMT 25.741852 -80.547974 2,750 59 215 0
2018-12-13 02:28:16 GMT 25.740641 -80.550407 2,750 59 215 0
2018-12-13 02:28:09 GMT 25.737244 -80.556732 2,750 59 215 0
2018-12-13 02:28:05 GMT 25.735474 -80.560051 2,750 59 215 64
2018-12-13 02:27:55 GMT 25.730026 -80.570518 2,750 60 219 -64
2018-12-13 02:27:44 GMT 25.724720 -80.580727 2,775 59 220 0
2018-12-13 02:27:34 GMT 25.719088 -80.591454 2,750 59 226 0
2018-12-13 02:27:23 GMT 25.713779 -80.601456 2,750 59 237 0
2018-12-13 02:27:13 GMT 25.707636 -80.613014 2,750 59 250 -256
2018-12-13 02:27:02 GMT 25.700729 -80.626015 2,825 59 255 -576
2018-12-13 02:26:51 GMT 25.694733 -80.637306 2,975 59 257 -1472
2018-12-13 02:26:40 GMT 25.687897 -80.650116 3,250 59 260 -1408
2018-12-13 02:26:31 GMT 25.682171 -80.660843 3,475 59 262 -1536
2018-12-13 02:26:19 GMT 25.674866 -80.674385 3,800 59 261 -2048
2018-12-13 02:26:09 GMT 25.669369 -80.684944 4,125 60 259 -2240
2018-12-13 02:25:59 GMT 25.662781 -80.697731 4,575 60 255 -2496
2018-12-13 02:25:49 GMT 25.656647 -80.709740 4,975 60 257 -2240
2018-12-13 02:25:38 GMT 25.650604 -80.721489 5,350 59 262 -1792
2018-12-13 02:25:27 GMT 25.643393 -80.734589 5,650 58 271 -1152
2018-12-13 02:25:17 GMT 25.637201 -80.745934 5,850 59 277 -1536
2018-12-13 02:25:07 GMT 25.629959 -80.759529 6,150 59 280 -2304
2018-12-13 02:24:56 GMT 25.623550 -80.771584 6,550 59 278 -2560
2018-12-13 02:24:46 GMT 25.616364 -80.785271 6,975 59 280 -2048
2018-12-13 02:24:35 GMT 25.610001 -80.797218 7,300 59 286 -1472
2018-12-13 02:24:25 GMT 25.602493 -80.811256 7,525 59 294 -1408
2018-12-13 02:24:14 GMT 25.594116 -80.826820 7,800 59 296 -1856
2018-12-13 02:24:07 GMT 25.589905 -80.834755 8,000 59 295 0
2018-12-13 02:24:04 GMT 25.587662 -80.838829 8,100 59 298 -2048
2018-12-13 02:23:53 GMT 25.580221 -80.853004 8,425 59 297 -2496
2018-12-13 02:23:42 GMT 25.572821 -80.866943 8,925 59 295 -2560
2018-12-13 02:23:36 GMT 25.567467 -80.876991 9,225 59 295 -1984
2018-12-13 02:23:32 GMT 25.565689 -80.880280 9,325 59 295 -2048
2018-12-13 02:23:22 GMT 25.558777 -80.893150 9,700 59 301 -1280
2018-12-13 02:23:11 GMT 25.550949 -80.907898 9,825 59 302 -1280
2018-12-13 02:23:01 GMT 25.542572 -80.922142 10,050 51 305 -1472
2018-12-13 02:22:50 GMT 25.533554 -80.933937 10,275 47 310 -1088
2018-12-13 02:22:40 GMT 25.522659 -80.946960 10,425 47 317 -320
2018-12-13 02:22:29 GMT 25.512497 -80.959419 10,475 47 329 -640
2018-12-13 02:22:19 GMT 25.501268 -80.973122 10,575 48 339 -640
2018-12-13 02:22:08 GMT 25.491074 -80.985718 10,675 48 348 -768
2018-12-13 02:21:58 GMT 25.479204 -81.000381 10,800 47 356 -832
2018-12-13 02:21:47 GMT 25.467133 -81.015068 11,100 47 366 -896
2018-12-13 02:21:37 GMT 25.455507 -81.029297 11,075 48 377 -960
2018-12-13 02:21:27 GMT 25.442688 -81.044975 11,225 47 388 -1024
2018-12-13 02:21:16 GMT 25.430099 -81.060432 11,425 47 397 -1472
2018-12-13 02:21:05 GMT 25.416824 -81.076767 11,700 47 401 -2240
2018-12-13 02:20:55 GMT 25.404144 -81.092171 12,075 47 404 -2240
2018-12-13 02:20:44 GMT 25.390289 -81.108849 12,475 47 407 -2496
2018-12-13 02:20:33 GMT 25.377394 -81.124344 12,925 47 407 -2816
2018-12-13 02:20:23 GMT 25.363724 -81.140999 13,350 47 409 -2432
2018-12-13 02:20:13 GMT 25.349834 -81.158028 13,750 47 416 -2368
2018-12-13 02:20:02 GMT 25.336853 -81.173912 14,150 47 421 -2560
2018-12-13 02:19:52 GMT 25.322433 -81.191200 14,575 47 426 -2624
2018-12-13 02:19:41 GMT 25.309113 -81.207222 15,025 47 429 -2688
2018-12-13 02:19:31 GMT 25.294144 -81.225380 15,475 47 433 -2816
2018-12-13 02:19:20 GMT 25.280287 -81.242393 15,950 47 437 -2560
2018-12-13 02:19:09 GMT 25.265671 -81.260323 16,350 48 443 -2304
2018-12-13 02:18:57 GMT 25.248911 -81.280533 16,750 48 447 -2624
2018-12-13 02:18:49 GMT 25.236246 -81.296082 17,225 47 449 -2624
2018-12-13 02:18:38 GMT 25.221085 -81.314445 17,800 47 452 -2688
2018-12-13 02:18:26 GMT 25.205566 -81.333412 18,150 47 454 -2688
2018-12-13 02:18:17 GMT 25.190414 -81.351570 18,600 47 458 -2752
2018-12-13 02:18:05 GMT 25.175766 -81.369225 19,050 47 460 -2816
2018-12-13 02:17:55 GMT 25.159424 -81.388954 19,550 47 463 -2816
2018-12-13 02:17:44 GMT 25.144547 -81.407219 20,025 47 465 -2880
2018-12-13 02:17:34 GMT 25.128754 -81.426292 20,500 47 468 -2816
2018-12-13 02:17:22 GMT 25.112513 -81.445587 21,025 47 471 -2880
2018-12-13 02:17:13 GMT 25.100052 -81.460571 21,400 47 474 -3008
2018-12-13 02:17:01 GMT 25.080414 -81.484375 22,025 47 477 -3008
2018-12-13 02:16:52 GMT 25.068329 -81.498817 22,625 47 480 -2944
2018-12-13 02:16:40 GMT 25.049107 -81.522232 22,925 47 483 -2944
2018-12-13 02:16:30 GMT 25.033218 -81.541389 23,500 47 487 -2752
2018-12-13 02:16:21 GMT 25.021042 -81.556450 23,825 47 491 -2752
2018-12-13 02:16:18 GMT 25.015963 -81.562607 24,925 47 497 -1984
2018-12-13 02:16:10 GMT 25.000992 -81.580559 24,450 47 496 -2688
2018-12-13 02:16:00 GMT 24.988823 -81.595047 24,775 47 496 -2176
2018-12-13 02:15:57 GMT 24.982224 -81.603088 24,925 47 497 -1984
2018-12-13 02:15:47 GMT 24.968536 -81.619415 25,200 47 496 -1280
2018-12-13 02:15:37 GMT 24.951736 -81.639656 25,400 47 496 -1024
2018-12-13 02:15:28 GMT 24.939243 -81.654900 25,525 47 497 -1024
2018-12-13 02:15:25 GMT 24.933611 -81.661583 25,575 47 497 -1024
2018-12-13 02:15:15 GMT 24.919006 -81.679230 25,750 47 500 -1024
2018-12-13 02:15:07 GMT 24.906601 -81.694084 25,875 47 501 -1024
2018-12-13 02:15:04 GMT 24.901337 -81.700233 25,925 47 501 -1024
2018-12-13 02:14:57 GMT 24.890923 -81.712730 26,050 47 503 -1024
2018-12-13 02:14:54 GMT 24.884262 -81.720734 26,100 47 503 -1024
2018-12-13 02:14:46 GMT 24.873367 -81.733856 26,225 47 506 -1024
2018-12-13 02:14:42 GMT 24.867460 -81.740822 26,275 47 507 -1024
2018-12-13 02:14:36 GMT 24.857803 -81.752525 26,375 47 509 -1024
2018-12-13 02:14:32 GMT 24.851166 -81.760460 26,450 47 510 -960
2018-12-13 02:14:22 GMT 24.833130 -81.782021 26,625 47 513 -1024
2018-12-13 02:14:14 GMT 24.820496 -81.796974 26,725 47 516 -1024
2018-12-13 02:14:10 GMT 24.817245 -81.800941 26,800 47 516 -1024
2018-12-13 02:14:03 GMT 24.804941 -81.815804 26,925 47 516 -1024
2018-12-13 02:14:00 GMT 24.799759 -81.821953 27,025 47 516 -1024
2018-12-13 02:13:54 GMT 24.788818 -81.835075 27,075 47 516 -1024
2018-12-13 02:13:50 GMT 24.780872 -81.844620 27,150 47 516 -960
2018-12-13 02:13:43 GMT 24.772934 -81.854095 27,250 47 515 -960
2018-12-13 02:13:38 GMT 24.763596 -81.865234 27,350 47 516 -960
2018-12-13 02:13:31 GMT 24.753296 -81.877594 27,425 47 516 -960
2018-12-13 02:13:28 GMT 24.747482 -81.884514 27,500 47 516 -960
2018-12-13 02:13:22 GMT 24.739014 -81.894836 27,575 47 516 -1024
2018-12-13 02:13:17 GMT 24.728968 -81.906601 27,675 47 516 -1024
2018-12-13 02:13:11 GMT 24.721287 -81.915878 27,750 47 517 -1024
2018-12-13 02:13:06 GMT 24.711418 -81.927742 27,850 47 517 -1024
2018-12-13 02:13:00 GMT 24.703217 -81.937614 27,950 47 516 -1024
2018-12-13 02:12:55 GMT 24.695498 -81.946609 28,025 47 517 -1024
2018-12-13 02:12:49 GMT 24.684357 -81.960197 28,150 47 517 -1024
2018-12-13 02:12:44 GMT 24.677061 -81.968681 28,225 47 516 -1024
2018-12-13 02:12:39 GMT 24.668776 -81.978790 28,300 47 516 -1024
2018-12-13 02:12:35 GMT 24.660814 -81.988327 28,400 47 515 -1024
2018-12-13 02:12:28 GMT 24.650482 -82.000427 28,500 47 513 -960
2018-12-13 02:12:23 GMT 24.643217 -82.009056 28,575 47 514 -1024
2018-12-13 02:12:17 GMT 24.633303 -82.020813 28,675 47 513 -960
2018-12-13 02:12:13 GMT 24.625397 -82.030128 28,750 47 513 -960
2018-12-13 02:12:08 GMT 24.619942 -82.036621 28,800 47 513 -960
2018-12-13 02:12:03 GMT 24.608688 -82.050072 28,925 47 512 -1024
2018-12-13 02:11:58 GMT 24.602325 -82.057549 28,975 47 511 -1024
2018-12-13 02:11:47 GMT 24.585480 -82.077538 29,150 44 509 -1152
2018-12-13 02:11:40 GMT 24.573298 -82.090515 29,275 42 507 -1152
2018-12-13 02:11:37 GMT 24.568130 -82.095795 29,325 40 506 -1152
2018-12-13 02:11:30 GMT 24.554304 -82.108498 29,450 37 504 -1152
2018-12-13 02:11:20 GMT 24.535126 -82.124123 29,625 33 502 -1152
2018-12-13 02:11:14 GMT 24.524139 -82.132011 29,700 31 500 -1152
2018-12-13 02:11:08 GMT 24.512146 -82.139893 29,825 29 498 -1152
2018-12-13 02:11:05 GMT 24.505600 -82.143654 29,875 28 497 -1280
2018-12-13 02:10:58 GMT 24.493227 -82.150993 30,000 27 496 -1536
2018-12-13 02:10:54 GMT 24.484709 -82.155968 30,125 27 495 -1536
2018-12-13 02:10:48 GMT 24.469810 -82.164520 30,300 28 494 -1536
2018-12-13 02:10:45 GMT 24.465296 -82.167160 30,350 28 494 -1536
2018-12-13 02:10:36 GMT 24.448351 -82.177010 30,550 28 493 -1536
2018-12-13 02:10:33 GMT 24.441742 -82.180885 30,650 28 493 -1536
2018-12-13 02:10:26 GMT 24.426844 -82.189606 30,825 28 493 -1472
2018-12-13 02:10:23 GMT 24.421555 -82.192635 30,875 28 492 -1472
2018-12-13 02:10:16 GMT 24.404480 -82.202858 31,075 28 491 -1472
2018-12-13 02:10:02 GMT 24.379578 -82.217354 31,325 28 492 -1472
2018-12-13 02:09:51 GMT 24.357788 -82.230278 31,625 28 493 -1408
2018-12-13 02:09:42 GMT 24.339020 -82.241364 31,850 28 492 -1024
2018-12-13 02:09:33 GMT 24.315262 -82.255150 32,050 28 492 -1024
2018-12-13 02:09:20 GMT 24.296310 -82.266144 32,200 28 490 -1024
2018-12-13 02:09:09 GMT 24.273594 -82.279305 32,400 27 488 -960
2018-12-13 02:08:59 GMT 24.254042 -82.290657 32,550 27 488 -960
2018-12-13 02:08:56 GMT 24.248594 -82.293762 32,600 27 488 -960
2018-12-13 02:08:49 GMT 24.233826 -82.302345 32,700 28 489 -896
2018-12-13 02:08:40 GMT 24.212704 -82.314804 32,850 29 491 -512
2018-12-13 02:08:29 GMT 24.191711 -82.328644 32,950 35 496 -128
2018-12-13 02:08:17 GMT 24.170807 -82.346054 33,000 41 501 64
2018-12-13 02:08:07 GMT 24.154083 -82.362617 33,000 43 502 0
2018-12-13 02:07:56 GMT 24.133713 -82.383728 33,000 43 503 0
2018-12-13 02:07:44 GMT 24.115494 -82.402092 33,000 43 503 0
2018-12-13 02:07:32 GMT 24.092102 -82.426201 32,975 43 503 0
2018-12-13 02:07:24 GMT 24.081007 -82.437363 32,975 43 504 0
2018-12-13 02:07:12 GMT 24.061203 -82.457832 33,000 42 504 0
We lost coverage of the aircraft here for a total of 20 minutes
2018-12-13 01:47:32 GMT 22.388832 -84.849754 33,000 52 501 0
2018-12-13 01:46:35 GMT 22.309113 -84.962120 32,975 52 499 0
2018-12-13 01:46:24 GMT 22.293045 -84.984894 33,000 52 498 -64
2018-12-13 01:46:12 GMT 22.276781 -85.007629 33,025 52 497 0
2018-12-13 01:46:02 GMT 22.248013 -85.048271 32,975 52 500 384
2018-12-13 01:45:52 GMT 22.248013 -85.048271 33,000 52 499 128
2018-12-13 01:45:40 GMT 22.230650 -85.072838 32,950 52 501 448
2018-12-13 01:45:30 GMT 22.217894 -85.090942 32,875 52 501 960
2018-12-13 01:45:23 GMT 22.208038 -85.104591 32,875 52 501 1088
2018-12-13 01:45:20 GMT 22.204010 -85.110588 32,700 52 502 1856
2018-12-13 01:45:09 GMT 22.187634 -85.133308 32,150 52 504 2432
2018-12-13 01:44:57 GMT 22.171295 -85.156456 31,850 52 505 2432
2018-12-13 01:44:48 GMT 22.156311 -85.177650 31,475 52 508 1856
2018-12-13 01:44:27 GMT 22.126740 -85.219101 30,875 52 508 1664
2018-12-13 01:43:15 GMT 22.026518 -85.360008 29,100 52 502 1792
2018-12-13 01:43:11 GMT 22.019115 -85.370430 28,950 52 503 1984
2018-12-13 01:43:04 GMT 22.010178 -85.382637 28,750 52 504 2176
2018-12-13 01:43:00 GMT 22.004498 -85.390625 28,575 52 505 2368
2018-12-13 01:42:52 GMT 21.992203 -85.408112 28,275 52 509 2048
2018-12-13 01:42:39 GMT 21.972656 -85.435234 27,850 52 510 1664
2018-12-13 01:42:31 GMT 21.961670 -85.450439 27,625 52 510 1472
2018-12-13 01:42:28 GMT 21.958282 -85.455406 27,575 52 510 1472
2018-12-13 01:42:17 GMT 21.942032 -85.477974 27,325 52 509 1408
2018-12-13 01:42:06 GMT 21.927292 -85.498550 27,075 52 509 1472
2018-12-13 01:41:55 GMT 21.911255 -85.520988 26,825 52 507 1408
2018-12-13 01:41:44 GMT 21.895615 -85.543098 26,575 52 508 1472
2018-12-13 01:41:34 GMT 21.880157 -85.564476 26,350 52 507 1216
2018-12-13 01:41:23 GMT 21.866180 -85.583847 26,150 52 505 1216
2018-12-13 01:41:13 GMT 21.850113 -85.606216 25,925 52 504 1152
2018-12-13 01:41:06 GMT 21.839796 -85.620880 25,800 52 502 1088
2018-12-13 01:41:02 GMT 21.833221 -85.629990 25,725 52 502 1152
2018-12-13 01:40:56 GMT 21.825413 -85.640770 25,625 52 500 1088
2018-12-13 01:40:50 GMT 21.817886 -85.651215 25,525 52 499 1024
2018-12-13 01:40:44 GMT 21.809692 -85.662651 25,425 52 498 1152
2018-12-13 01:40:40 GMT 21.803951 -85.670624 25,350 52 498 1280
2018-12-13 01:40:34 GMT 21.795340 -85.682678 25,225 52 497 1344
2018-12-13 01:40:29 GMT 21.789322 -85.690964 25,125 52 497 1280
2018-12-13 01:40:22 GMT 21.779114 -85.705444 24,975 52 495 1088
2018-12-13 01:40:18 GMT 21.773163 -85.713631 24,900 52 495 1088
2018-12-13 01:40:11 GMT 21.764465 -85.725616 24,775 52 494 1216
2018-12-13 01:40:08 GMT 21.759773 -85.732521 24,725 52 492 1216
2018-12-13 01:40:03 GMT 21.750416 -85.745239 24,600 52 492 1152
2018-12-13 01:39:57 GMT 21.743759 -85.754494 24,500 52 491 1280
2018-12-13 01:39:52 GMT 21.736084 -85.765121 24,400 52 489 1600
2018-12-13 01:39:46 GMT 21.729263 -85.774506 24,250 52 490 1792
2018-12-13 01:39:42 GMT 21.721878 -85.784813 24,100 52 491 1856
2018-12-13 01:39:35 GMT 21.713825 -85.796104 23,950 52 491 1536
2018-12-13 01:39:30 GMT 21.705912 -85.807137 23,800 52 490 1472
2018-12-13 01:39:25 GMT 21.698090 -85.817856 23,675 52 490 1408
2018-12-13 01:39:21 GMT 21.692551 -85.825745 23,575 52 489 1280
2018-12-13 01:39:14 GMT 21.683706 -85.837860 23,450 52 487 1152
2018-12-13 01:39:09 GMT 21.677422 -85.846611 23,375 52 486 896
2018-12-13 01:38:59 GMT 21.664202 -85.864967 23,225 52 482 1152
2018-12-13 01:38:51 GMT 21.653549 -85.879929 23,075 52 480 1472
2018-12-13 01:38:48 GMT 21.648746 -85.886383 23,000 52 479 1856
2018-12-13 01:38:41 GMT 21.638443 -85.900749 22,775 52 480 2048
2018-12-13 01:38:36 GMT 21.632126 -85.909241 22,625 52 481 1984
2018-12-13 01:38:28 GMT 21.620270 -85.926117 22,350 52 481 1728
2018-12-13 01:38:20 GMT 21.610336 -85.939606 22,150 52 479 1280
2018-12-13 01:38:16 GMT 21.605267 -85.946655 22,075 52 478 1024
2018-12-13 01:38:07 GMT 21.591019 -85.966370 21,925 52 474 768
2018-12-13 01:37:56 GMT 21.576782 -85.986145 21,775 52 468 1216
2018-12-13 01:37:48 GMT 21.567947 -85.998428 21,625 52 466 1408
2018-12-13 01:37:44 GMT 21.563135 -86.005196 21,550 52 465 1408
2018-12-13 01:37:35 GMT 21.548845 -86.024933 21,300 52 462 1536
2018-12-13 01:37:26 GMT 21.538284 -86.039482 21,125 52 460 1664
2018-12-13 01:37:13 GMT 21.520523 -86.063896 20,725 52 457 1728
2018-12-13 01:37:02 GMT 21.506855 -86.082970 20,450 52 456 1792
2018-12-13 01:36:52 GMT 21.494156 -86.100601 20,150 52 454 1920
2018-12-13 01:36:41 GMT 21.479715 -86.120399 19,825 52 453 1856
2018-12-13 01:36:31 GMT 21.467239 -86.137604 19,525 52 451 1728
2018-12-13 01:36:20 GMT 21.452993 -86.157227 19,225 52 449 1664
2018-12-13 01:36:10 GMT 21.440506 -86.174461 18,950 52 446 1792
2018-12-13 01:36:00 GMT 21.426590 -86.193787 18,625 52 444 2112
2018-12-13 01:35:50 GMT 21.413361 -86.212013 18,300 52 444 1792
2018-12-13 01:35:46 GMT 21.410816 -86.215363 18,225 52 444 1792
2018-12-13 01:35:38 GMT 21.398666 -86.232140 17,950 52 441 1792
2018-12-13 01:35:28 GMT 21.386719 -86.248665 17,675 52 438 1856
2018-12-13 01:35:17 GMT 21.373672 -86.266693 17,350 52 436 2240
2018-12-13 01:35:07 GMT 21.359797 -86.285912 16,975 52 436 2368
2018-12-13 01:34:55 GMT 21.347626 -86.302750 16,575 52 435 2432
2018-12-13 01:34:46 GMT 21.333710 -86.321724 16,175 52 434 2112
2018-12-13 01:34:34 GMT 21.321018 -86.339111 15,850 52 431 1600
2018-12-13 01:34:24 GMT 21.307796 -86.357323 15,600 52 426 1088
2018-12-13 01:34:13 GMT 21.294111 -86.376091 15,425 52 418 1536
2018-12-13 01:34:02 GMT 21.281868 -86.392975 15,125 52 414 2240
2018-12-13 01:33:51 GMT 21.268320 -86.411644 14,725 52 412 2368
2018-12-13 01:33:40 GMT 21.256405 -86.428123 14,350 52 409 2240
2018-12-13 01:33:32 GMT 21.245773 -86.442574 14,000 52 407 3072
2018-12-13 01:33:21 GMT 21.234058 -86.458794 13,450 52 409 3520
2018-12-13 01:33:18 GMT 21.231445 -86.462204 13,325 52 410 3456
2018-12-13 01:33:11 GMT 21.220884 -86.476845 12,850 52 411 3008
2018-12-13 01:33:08 GMT 21.218651 -86.479698 12,775 52 411 2880
2018-12-13 01:32:57 GMT 21.206127 -86.496941 12,275 52 409 2240
2018-12-13 01:32:50 GMT 21.196630 -86.509804 12,025 52 404 1728
2018-12-13 01:32:46 GMT 21.193405 -86.514435 11,950 52 402 1600
2018-12-13 01:32:38 GMT 21.183563 -86.527924 11,750 52 394 1280
2018-12-13 01:32:35 GMT 21.181046 -86.531219 11,675 52 392 1280
2018-12-13 01:32:28 GMT 21.172943 -86.542450 11,550 52 384 1344
2018-12-13 01:32:25 GMT 21.169464 -86.547096 11,475 52 381 1408
2018-12-13 01:32:18 GMT 21.161087 -86.558731 11,325 52 373 1472
2018-12-13 01:32:14 GMT 21.157013 -86.564278 11,250 52 370 1536
2018-12-13 01:32:07 GMT 21.150146 -86.573616 11,050 52 362 1536
2018-12-13 01:32:03 GMT 21.146759 -86.578506 10,975 52 358 1408
2018-12-13 01:31:57 GMT 21.139000 -86.588898 10,825 52 349 1280
2018-12-13 01:31:53 GMT 21.135498 -86.593742 10,750 52 344 1344
2018-12-13 01:31:46 GMT 21.129181 -86.602379 10,625 52 336 1344
2018-12-13 01:31:41 GMT 21.125153 -86.607773 10,525 52 329 1344
2018-12-13 01:31:36 GMT 21.119028 -86.616211 10,400 51 321 1472
2018-12-13 01:31:31 GMT 21.114670 -86.622154 10,300 51 314 1792
2018-12-13 01:31:24 GMT 21.109039 -86.629692 10,100 51 308 2624
2018-12-13 01:31:20 GMT 21.106087 -86.633911 9,950 52 306 2688
2018-12-13 01:31:15 GMT 21.100342 -86.641731 9,675 52 302 2816
2018-12-13 01:31:10 GMT 21.096357 -86.647285 9,475 52 300 3136
2018-12-13 01:31:03 GMT 21.091003 -86.654564 9,150 52 297 3328
2018-12-13 01:30:59 GMT 21.087479 -86.659309 8,900 52 297 3328
2018-12-13 01:30:53 GMT 21.082438 -86.666260 8,600 52 295 3264
2018-12-13 01:30:48 GMT 21.078062 -86.672264 8,325 52 294 3200
2018-12-13 01:30:42 GMT 21.072876 -86.679436 8,025 51 292 3136
2018-12-13 01:30:37 GMT 21.068472 -86.685387 7,800 51 290 3328
2018-12-13 01:30:32 GMT 21.064840 -86.690369 7,500 51 289 3584
2018-12-13 01:30:26 GMT 21.060139 -86.696625 7,200 51 288 3968
2018-12-13 01:30:22 GMT 21.055389 -86.702950 6,825 52 288 4480
2018-12-13 01:30:15 GMT 21.050224 -86.710304 6,400 56 293 4608
2018-12-13 01:30:11 GMT 21.047710 -86.714272 6,100 59 294 4288
2018-12-13 01:30:04 GMT 21.043304 -86.722626 5,700 63 293 3520
2018-12-13 01:30:01 GMT 21.040375 -86.728874 5,450 63 291 3520
2018-12-13 01:29:54 GMT 21.036530 -86.737358 5,100 63 289 3584
2018-12-13 01:29:49 GMT 21.033697 -86.743523 4,825 64 288 3456
2018-12-13 01:29:43 GMT 21.030624 -86.750237 4,475 64 286 3200
2018-12-13 01:29:40 GMT 21.028252 -86.755585 4,275 64 283 2816
2018-12-13 01:29:28 GMT 21.022110 -86.768890 3,850 63 270 1856
2018-12-13 01:29:21 GMT 21.018173 -86.777618 3,625 63 258 1536
2018-12-13 01:29:18 GMT 21.016663 -86.780663 3,550 62 253 1600
2018-12-13 01:29:08 GMT 21.010700 -86.792793 3,225 62 236 1920
2018-12-13 01:28:57 GMT 21.006134 -86.802933 2,925 72 219 2304
2018-12-13 01:28:47 GMT 21.004322 -86.814262 2,600 96 206 2240
2018-12-13 01:28:36 GMT 21.006231 -86.823898 2,300 112 192 1152
2018-12-13 01:28:26 GMT 21.010422 -86.833244 2,075 121 178 1344
2018-12-13 01:28:13 GMT 21.015495 -86.842278 1,825 121 164 1280
2018-12-13 01:28:03 GMT 21.018988 -86.848518 1,625 121 151 1280
2018-12-13 01:27:54 GMT 21.022758 -86.854912 1,400 122 140 1408
We lost coverage of the aircraft here for a total of 168 minutes
2018-12-12 22:40:21 GMT 21.046312 -86.892647 -50 123 123 -832
2018-12-12 22:40:10 GMT 21.049152 -86.897224 75 123 122 -704
2018-12-12 22:40:02 GMT 21.051853 -86.901550 175 124 121 -576
2018-12-12 22:39:51 GMT 21.055531 -86.907349 275 123 120 -448
2018-12-12 22:39:39 GMT 21.058649 -86.912537 350 121 119 -512
2018-12-12 22:39:30 GMT 21.061661 -86.917786 450 121 120 -512
2018-12-12 22:39:19 GMT 21.064499 -86.922928 525 115 118 -256
2018-12-12 22:39:08 GMT 21.067108 -86.928925 600 110 119 -576
2018-12-12 22:38:57 GMT 21.069077 -86.934868 700 106 119 -704
2018-12-12 22:38:47 GMT 21.070221 -86.941353 850 94 122 -1024
2018-12-12 22:38:35 GMT 21.070679 -86.947449 1,025 94 124 -896
2018-12-12 22:38:25 GMT 21.071173 -86.954445 1,150 92 129 -640
2018-12-12 22:38:15 GMT 21.070908 -86.961731 1,250 80 140 -512
2018-12-12 22:38:03 GMT 21.069544 -86.968788 1,375 71 153 -832
2018-12-12 22:37:52 GMT 21.066650 -86.976913 1,500 64 163 -1024
2018-12-12 22:37:42 GMT 21.062840 -86.984306 1,675 56 169 -1280
2018-12-12 22:37:31 GMT 21.057587 -86.991791 1,900 43 169 -1152
2018-12-12 22:37:21 GMT 21.051498 -86.996635 2,075 24 173 -768
2018-12-12 22:37:09 GMT 21.042206 -86.999634 2,175 7 188 -192
2018-12-12 22:37:00 GMT 21.033646 -87.000282 2,250 0 197 -640
2018-12-12 22:36:48 GMT 21.023270 -86.999985 2,400 354 208 -704
2018-12-12 22:36:39 GMT 21.012222 -86.998627 2,525 354 218 -768
2018-12-12 22:36:27 GMT 21.002426 -86.997498 2,650 355 224 -896
2018-12-12 22:36:17 GMT 20.990753 -86.996223 2,800 353 231 -832
2018-12-12 22:36:06 GMT 20.979446 -86.993820 2,975 338 239 -1024
2018-12-12 22:35:56 GMT 20.968712 -86.987946 3,125 330 248 -896
2018-12-12 22:35:45 GMT 20.958469 -86.981209 3,325 327 259 -1024
2018-12-12 22:35:35 GMT 20.947716 -86.972916 3,500 322 270 -1088
2018-12-12 22:35:23 GMT 20.936829 -86.963509 3,725 319 284 -896
2018-12-12 22:35:13 GMT 20.926907 -86.953690 3,850 316 298 -192
2018-12-12 22:35:05 GMT 20.914215 -86.940262 3,875 316 316 0
2018-12-12 22:34:54 GMT 20.907169 -86.932869 3,900 315 323 0
2018-12-12 22:34:50 GMT 20.903778 -86.929276 3,900 315 325 128
2018-12-12 22:34:44 GMT 20.895111 -86.919884 3,850 315 336 64
2018-12-12 22:34:39 GMT 20.891418 -86.916130 3,850 316 340 64
2018-12-12 22:34:31 GMT 20.881145 -86.905251 3,850 315 353 0
2018-12-12 22:34:28 GMT 20.878819 -86.902657 3,850 315 354 0
2018-12-12 22:34:23 GMT 20.871790 -86.895264 3,875 315 354 0
2018-12-12 22:34:18 GMT 20.866343 -86.889473 3,875 315 354 0
2018-12-12 22:34:12 GMT 20.859924 -86.882675 3,875 315 357 192
2018-12-12 22:34:07 GMT 20.854704 -86.877083 3,850 315 362 64
2018-12-12 22:34:02 GMT 20.846924 -86.868599 3,825 315 371 0
2018-12-12 22:33:59 GMT 20.843533 -86.864899 3,825 315 372 128
2018-12-12 22:33:56 GMT 20.840551 -86.861656 3,850 315 371 0
2018-12-12 22:33:48 GMT 20.831148 -86.851471 3,850 315 371 -192
2018-12-12 22:33:45 GMT 20.828262 -86.848320 3,850 315 371 -320
2018-12-12 22:33:41 GMT 20.821976 -86.841431 3,875 315 371 -832
2018-12-12 22:33:36 GMT 20.817123 -86.836327 3,925 315 371 -1088
2018-12-12 22:33:30 GMT 20.808472 -86.827110 4,050 316 369 -1408
2018-12-12 22:33:26 GMT 20.802984 -86.821404 4,125 316 367 -1856
2018-12-12 22:33:23 GMT 20.801682 -86.820061 4,200 316 367 -1920
2018-12-12 22:33:20 GMT 20.795975 -86.814163 4,325 316 367 -2048
2018-12-12 22:33:16 GMT 20.791077 -86.809204 4,450 317 369 -2432
2018-12-12 22:33:12 GMT 20.787903 -86.805878 4,525 317 372 -2432
2018-12-12 22:33:08 GMT 20.782516 -86.800476 4,700 317 374 -2304
2018-12-12 22:33:05 GMT 20.777664 -86.795570 4,850 317 377 -2752
2018-12-12 22:32:59 GMT 20.770212 -86.787994 5,150 317 377 -2944
2018-12-12 22:32:53 GMT 20.756836 -86.774437 5,500 317 378 -2112
2018-12-12 22:32:48 GMT 20.756836 -86.774437 5,575 317 379 -1792
2018-12-12 22:32:43 GMT 20.749590 -86.767120 5,750 317 381 -1088
2018-12-12 22:32:40 GMT 20.746750 -86.764229 5,800 317 381 -640
2018-12-12 22:32:37 GMT 20.741907 -86.759331 5,825 317 383 0
2018-12-12 22:32:33 GMT 20.737673 -86.754990 5,850 317 384 128
2018-12-12 22:32:29 GMT 20.732941 -86.750252 5,850 317 385 128
2018-12-12 22:32:26 GMT 20.729187 -86.746330 5,850 317 385 128
2018-12-12 22:32:22 GMT 20.722961 -86.740150 5,825 317 386 128
2018-12-12 22:32:16 GMT 20.713884 -86.731071 5,800 317 386 128
2018-12-12 22:32:12 GMT 20.709778 -86.726906 5,800 317 386 128
2018-12-12 22:32:06 GMT 20.702152 -86.719086 5,775 317 388 -128
2018-12-12 22:32:00 GMT 20.695356 -86.712189 5,800 317 390 -832
2018-12-12 22:31:56 GMT 20.688002 -86.704651 5,875 317 388 -1280
2018-12-12 22:31:50 GMT 20.680412 -86.697060 5,975 316 386 -1792
2018-12-12 22:31:45 GMT 20.675291 -86.691566 6,125 316 384 -2048
2018-12-12 22:31:40 GMT 20.668076 -86.684227 6,325 316 380 -2112
2018-12-12 22:31:35 GMT 20.661745 -86.677635 6,475 316 381 -2240
2018-12-12 22:31:28 GMT 20.654114 -86.669670 6,650 316 389 -3072
2018-12-12 22:31:23 GMT 20.647779 -86.663155 6,925 316 388 -4288
2018-12-12 22:31:19 GMT 20.641262 -86.656464 7,250 316 384 -4928
2018-12-12 22:31:14 GMT 20.634373 -86.649323 7,675 316 381 -4800
2018-12-12 22:31:08 GMT 20.626459 -86.641129 8,125 317 380 -3968
2018-12-12 22:31:03 GMT 20.620314 -86.634987 8,400 317 381 -3776
2018-12-12 22:30:57 GMT 20.613935 -86.628296 8,750 317 384 -3456
2018-12-12 22:30:53 GMT 20.608070 -86.622253 9,000 317 386 -2688
2018-12-12 22:30:45 GMT 20.598587 -86.612823 9,275 317 393 -2688
2018-12-12 22:30:41 GMT 20.593361 -86.607574 9,450 317 395 -2944
2018-12-12 22:30:36 GMT 20.586227 -86.600563 9,725 317 397 -3072
2018-12-12 22:30:31 GMT 20.579393 -86.593689 9,975 317 399 -3200
2018-12-12 22:30:25 GMT 20.571527 -86.585701 10,250 317 401 -3328
2018-12-12 22:30:20 GMT 20.564358 -86.578407 10,525 316 402 -3456
2018-12-12 22:30:15 GMT 20.556610 -86.570404 10,825 316 404 -3200
2018-12-12 22:30:09 GMT 20.550705 -86.564125 11,100 316 408 -1920
2018-12-12 22:30:04 GMT 20.542805 -86.556084 11,275 316 417 -1536
2018-12-12 22:29:58 GMT 20.535030 -86.547897 11,350 316 423 -2880
2018-12-12 22:29:53 GMT 20.527679 -86.540237 11,700 315 422 -4480
2018-12-12 22:29:47 GMT 20.520552 -86.532616 11,975 315 421 -4096
2018-12-12 22:29:43 GMT 20.513489 -86.525032 12,425 315 422 -3328
2018-12-12 22:29:39 GMT 20.507858 -86.518753 12,625 315 424 -2944
2018-12-12 22:29:32 GMT 20.498487 -86.508896 12,925 315 427 -3456
2018-12-12 22:29:28 GMT 20.493851 -86.503647 13,100 315 428 -3712
2018-12-12 22:29:25 GMT 20.488724 -86.498253 13,275 315 427 -3968
2018-12-12 22:29:22 GMT 20.484238 -86.493401 13,550 316 427 -3968
2018-12-12 22:29:18 GMT 20.479294 -86.488251 13,775 316 427 -3712
2018-12-12 22:29:15 GMT 20.475071 -86.483727 13,950 317 428 -3456
2018-12-12 22:29:11 GMT 20.468367 -86.477081 14,175 320 429 -3264
2018-12-12 22:29:07 GMT 20.462723 -86.472115 14,375 322 431 -3072
2018-12-12 22:29:04 GMT 20.457870 -86.467850 14,525 323 433 -2880
2018-12-12 22:29:00 GMT 20.452446 -86.463501 14,700 325 435 -2560
2018-12-12 22:28:57 GMT 20.446255 -86.458755 14,850 327 438 -1984
2018-12-12 22:28:53 GMT 20.440842 -86.454849 14,950 327 442 -1664
2018-12-12 22:28:50 GMT 20.433609 -86.449898 15,050 327 446 -2560
2018-12-12 22:28:45 GMT 20.426611 -86.444977 15,200 327 448 -3136
2018-12-12 22:28:42 GMT 20.421303 -86.441376 15,325 328 449 -3264
2018-12-12 22:28:39 GMT 20.413971 -86.436356 15,550 328 451 -3584
2018-12-12 22:28:36 GMT 20.410410 -86.433891 15,700 328 452 -3584
2018-12-12 22:28:31 GMT 20.403397 -86.428902 15,925 328 454 -3072
2018-12-12 22:28:28 GMT 20.396576 -86.424438 16,100 328 457 -3072
2018-12-12 22:28:24 GMT 20.389526 -86.419632 16,300 328 459 -3392
2018-12-12 22:28:20 GMT 20.383083 -86.415161 16,475 328 459 -3712
2018-12-12 22:28:15 GMT 20.369980 -86.406143 16,850 328 461 -3840
2018-12-12 22:28:07 GMT 20.358177 -86.398033 17,325 327 462 -4096
2018-12-12 22:28:03 GMT 20.353010 -86.394440 17,500 328 462 -4096
2018-12-12 22:27:59 GMT 20.344482 -86.388634 17,800 328 462 -4288
2018-12-12 22:27:53 GMT 20.332947 -86.380608 18,200 328 463 -3584
2018-12-12 22:27:45 GMT 20.320175 -86.372009 18,600 328 469 -2688
2018-12-12 22:27:42 GMT 20.315210 -86.368568 18,725 328 472 -3200
2018-12-12 22:27:35 GMT 20.299255 -86.357590 19,150 327 474 -4224
2018-12-12 22:27:32 GMT 20.293983 -86.354088 19,325 327 474 -4608
2018-12-12 22:27:26 GMT 20.283602 -86.346893 19,700 327 473 -5120
2018-12-12 22:27:22 GMT 20.276459 -86.341896 20,100 327 471 -5184
2018-12-12 22:27:14 GMT 20.261024 -86.331268 20,750 328 470 -4416
2018-12-12 22:27:10 GMT 20.254807 -86.326889 20,975 328 470 -3968
2018-12-12 22:27:04 GMT 20.243706 -86.319527 21,450 328 472 -2816
2018-12-12 22:27:00 GMT 20.236538 -86.314384 21,600 328 472 -2432
2018-12-12 22:26:54 GMT 20.225691 -86.307045 21,800 328 475 -1536
2018-12-12 22:26:50 GMT 20.217407 -86.301338 21,925 328 477 -1088
2018-12-12 22:26:42 GMT 20.201157 -86.290054 22,075 328 479 -1024
2018-12-12 22:26:38 GMT 20.192825 -86.284363 22,150 327 480 -1024
2018-12-12 22:26:32 GMT 20.185089 -86.279068 22,275 327 480 -1024
2018-12-12 22:26:29 GMT 20.178579 -86.274689 22,275 327 480 -1024
2018-12-12 22:26:19 GMT 20.157770 -86.260353 22,450 328 481 -1024
2018-12-12 22:26:08 GMT 20.139038 -86.247238 22,625 327 482 -1024
2018-12-12 22:25:59 GMT 20.122623 -86.236137 22,800 328 482 -1024
2018-12-12 22:25:56 GMT 20.115829 -86.231544 22,850 328 482 -1024
2018-12-12 22:25:49 GMT 20.103333 -86.222763 22,975 328 483 -1024
2018-12-12 22:25:44 GMT 20.094088 -86.216606 23,050 328 483 -1024
2018-12-12 22:25:38 GMT 20.082870 -86.208885 23,150 328 483 -1024
2018-12-12 22:25:28 GMT 20.061220 -86.194183 23,325 328 484 -1024
2018-12-12 22:25:17 GMT 20.042496 -86.181366 23,525 328 485 -960
2018-12-12 22:25:12 GMT 20.033020 -86.174896 23,575 328 485 -960
2018-12-12 22:25:05 GMT 20.018005 -86.164642 23,700 328 485 -960
2018-12-12 22:24:56 GMT 20.002520 -86.153984 23,850 328 485 -960
2018-12-12 22:24:53 GMT 19.979940 -86.138908 23,850 328 485 -960
2018-12-12 22:24:44 GMT 19.979940 -86.138908 24,025 328 485 -1024
2018-12-12 22:24:34 GMT 19.962902 -86.127167 24,200 327 484 -1088
2018-12-12 22:24:22 GMT 19.938322 -86.110138 24,400 328 479 -1024
2018-12-12 22:24:11 GMT 19.920547 -86.098038 24,575 328 478 -1088
2018-12-12 22:24:00 GMT 19.899313 -86.083725 24,750 328 475 -1024
2018-12-12 22:23:50 GMT 19.878225 -86.069344 25,000 328 474 -1024
2018-12-12 22:23:38 GMT 19.856857 -86.054710 25,100 328 475 -1024
2018-12-12 22:23:29 GMT 19.840164 -86.043159 25,300 328 476 -1024
2018-12-12 22:23:19 GMT 19.823822 -86.031975 25,475 328 480 -1024
2018-12-12 22:23:09 GMT 19.803787 -86.018356 25,625 328 479 -1024
2018-12-12 22:22:59 GMT 19.784981 -86.005569 25,775 328 480 -1024
2018-12-12 22:22:54 GMT 19.776169 -85.999557 25,850 328 480 -1024
2018-12-12 22:22:47 GMT 19.761383 -85.989349 25,975 328 481 -1024
2018-12-12 22:22:37 GMT 19.742844 -85.976799 26,150 328 483 -1024
2018-12-12 22:22:27 GMT 19.723858 -85.963821 26,325 328 484 -1024
2018-12-12 22:22:15 GMT 19.702927 -85.949722 26,500 328 483 -1024
2018-12-12 22:22:05 GMT 19.684010 -85.936806 26,675 328 482 -1024
2018-12-12 22:21:55 GMT 19.662315 -85.921928 26,850 328 484 -1024
2018-12-12 22:21:43 GMT 19.643417 -85.908821 27,025 328 485 -1024
2018-12-12 22:21:32 GMT 19.622234 -85.894562 27,200 328 486 -1024
2018-12-12 22:21:22 GMT 19.602905 -85.881454 27,375 328 486 -1024
2018-12-12 22:21:11 GMT 19.579453 -85.865448 27,575 328 485 -1024
2018-12-12 22:21:00 GMT 19.561249 -85.853149 27,750 328 484 -1024
2018-12-12 22:20:50 GMT 19.541512 -85.839775 27,925 328 484 -960
2018-12-12 22:20:40 GMT 19.520702 -85.825745 28,100 328 483 -1024
2018-12-12 22:20:28 GMT 19.501104 -85.812462 28,275 328 482 -1024
2018-12-12 22:20:17 GMT 19.479950 -85.797829 28,450 328 479 -1024
2018-12-12 22:20:08 GMT 19.461395 -85.785248 28,625 328 479 -960
2018-12-12 22:19:57 GMT 19.440262 -85.771164 28,800 328 479 -1024
2018-12-12 22:19:45 GMT 19.421219 -85.758293 28,975 328 479 -1024
2018-12-12 22:19:34 GMT 19.399475 -85.743385 29,150 328 478 -1088
2018-12-12 22:19:25 GMT 19.380707 -85.730637 29,325 328 478 -1024
2018-12-12 22:18:59 GMT 19.334587 -85.699455 29,750 328 477 -960
2018-12-12 22:18:53 GMT 19.321060 -85.690369 29,850 328 477 -1024
2018-12-12 22:18:41 GMT 19.299673 -85.675728 30,025 328 478 -1024
2018-12-12 22:17:48 GMT 19.202866 -85.610321 30,925 328 474 -960
2018-12-12 22:17:36 GMT 19.178917 -85.594482 31,125 328 474 -960
2018-12-12 22:17:26 GMT 19.158480 -85.580650 31,300 328 475 -1024
2018-12-12 22:17:16 GMT 19.141205 -85.568878 31,475 328 474 -960
2018-12-12 22:17:04 GMT 19.120651 -85.554901 31,650 328 473 -1024
2018-12-12 22:16:01 GMT 19.003880 -85.475983 32,625 328 472 -896
2018-12-12 22:14:28 GMT 18.835648 -85.358475 34,000 320 465 -832
2018-12-12 22:13:29 GMT 18.749680 -85.259102 34,925 310 451 -1024
2018-12-12 22:13:19 GMT 18.738876 -85.245125 35,075 310 450 -1024
2018-12-12 22:13:09 GMT 18.724241 -85.226837 35,250 310 450 -960
2018-12-12 22:12:56 GMT 18.706009 -85.203735 35,475 310 448 -896
2018-12-12 22:11:33 GMT 18.599213 -85.069786 35,975 316 421 0
2018-12-12 22:11:26 GMT 18.587891 -85.058601 35,975 321 422 -64
2018-12-12 22:11:16 GMT 18.574814 -85.048210 35,975 329 423 -64
2018-12-12 22:11:00 GMT 18.546551 -85.032631 35,975 341 420 0
2018-12-12 22:10:54 GMT 18.534714 -85.028389 35,975 343 420 0
2018-12-12 22:10:46 GMT 18.519272 -85.024490 35,975 352 416 -128
2018-12-12 22:10:31 GMT 18.492970 -85.021645 36,000 358 412 0
2018-12-12 22:10:21 GMT 18.471359 -85.023293 35,975 12 416 0
2018-12-12 22:10:14 GMT 18.458771 -85.026138 36,000 17 421 -128
2018-12-12 22:09:42 GMT 18.401184 -85.053162 36,025 26 441 0
2018-12-12 22:08:28 GMT 18.259872 -85.128151 35,975 26 469 0
2018-12-12 22:08:19 GMT 18.239868 -85.138695 35,975 26 470 0
2018-12-12 22:08:07 GMT 18.219196 -85.149734 35,975 26 470 0
2018-12-12 22:07:57 GMT 18.198944 -85.160278 35,975 26 469 0
2018-12-12 22:07:19 GMT 18.125532 -85.199074 36,000 26 468 0
2018-12-12 22:07:14 GMT 18.115402 -85.204277 36,000 26 467 0
2018-12-12 22:04:38 GMT 17.814835 -85.362808 36,000 26 453 -64
2018-12-12 22:00:29 GMT 17.345736 -85.608215 36,000 26 457 0
2018-12-12 22:00:26 GMT 17.339499 -85.611259 36,000 26 457 0
2018-12-12 22:00:14 GMT 17.314220 -85.624451 36,000 26 456 0
2018-12-12 22:00:03 GMT 17.295547 -85.634186 35,975 26 456 0
2018-12-12 21:59:39 GMT 17.250351 -85.657799 36,000 26 455 0
2018-12-12 21:59:34 GMT 17.240108 -85.663147 36,000 26 454 0
2018-12-12 21:59:23 GMT 17.221256 -85.673004 35,975 26 453 0
2018-12-12 21:59:12 GMT 17.198631 -85.684875 36,000 26 453 0
2018-12-12 21:59:00 GMT 17.176798 -85.696060 36,000 26 453 0
2018-12-12 21:58:50 GMT 17.157440 -85.706177 35,975 26 454 0
2018-12-12 21:58:47 GMT 17.151752 -85.709106 35,975 26 454 0
2018-12-12 21:58:40 GMT 17.137602 -85.716606 36,000 26 456 0
2018-12-12 21:58:19 GMT 17.094955 -85.738701 36,000 26 460 0
2018-12-12 21:58:11 GMT 17.085602 -85.743629 36,000 26 460 0
2018-12-12 21:57:59 GMT 17.058834 -85.757515 36,000 26 465 -128
2018-12-12 21:57:53 GMT 17.046452 -85.763985 36,000 26 468 -64
2018-12-12 21:57:39 GMT 17.022385 -85.776489 36,000 26 471 64
2018-12-12 21:57:32 GMT 17.007908 -85.784241 35,975 26 477 64
2018-12-12 21:57:09 GMT 16.958908 -85.809776 36,000 26 483 0
2018-12-12 21:57:01 GMT 16.945339 -85.816658 36,000 26 483 0
2018-12-12 21:56:58 GMT 16.940781 -85.819122 36,000 26 483 0
2018-12-12 21:56:52 GMT 16.929188 -85.825050 36,000 26 484 0
2018-12-12 21:56:46 GMT 16.913637 -85.832993 36,000 26 484 0
2018-12-12 21:56:38 GMT 16.896320 -85.841919 36,000 26 484 0
2018-12-12 21:56:26 GMT 16.875916 -85.852470 36,000 26 485 0
2018-12-12 21:56:15 GMT 16.853912 -85.863991 36,025 26 485 0
2018-12-12 21:56:06 GMT 16.833382 -85.874634 36,025 26 486 0
2018-12-12 21:55:54 GMT 16.810684 -85.886391 36,025 26 486 0
2018-12-12 21:55:43 GMT 16.789808 -85.897194 36,000 26 487 0
2018-12-12 21:55:32 GMT 16.767151 -85.909134 36,000 26 487 0
2018-12-12 21:55:23 GMT 16.746826 -85.919739 36,000 26 486 0
2018-12-12 21:55:12 GMT 16.723984 -85.931496 35,975 26 487 0
2018-12-12 21:54:59 GMT 16.700989 -85.943497 36,000 26 487 0
2018-12-12 21:54:50 GMT 16.681528 -85.953552 36,000 26 487 0
2018-12-12 21:54:39 GMT 16.656418 -85.966858 35,975 26 487 0
2018-12-12 21:54:28 GMT 16.638290 -85.975967 35,975 26 487 0
2018-12-12 21:54:19 GMT 16.614624 -85.988159 35,975 26 487 0
2018-12-12 21:54:08 GMT 16.595362 -85.998131 35,975 26 486 0
2018-12-12 21:53:57 GMT 16.572281 -86.010277 35,975 26 487 0
2018-12-12 21:53:45 GMT 16.551407 -86.020927 35,975 26 486 0
2018-12-12 21:53:35 GMT 16.529480 -86.032204 35,975 26 486 0
2018-12-12 21:53:24 GMT 16.506586 -86.044136 35,975 26 486 0
2018-12-12 21:53:14 GMT 16.485266 -86.055222 35,975 26 484 0
2018-12-12 21:53:02 GMT 16.461849 -86.067139 36,000 26 485 0
2018-12-12 21:52:51 GMT 16.442368 -86.077110 36,000 26 484 0
2018-12-12 21:52:42 GMT 16.420046 -86.088623 35,975 26 485 0
2018-12-12 21:52:29 GMT 16.397461 -86.100388 35,975 26 485 0
2018-12-12 21:52:19 GMT 16.376404 -86.111176 36,000 26 485 0
2018-12-12 21:52:04 GMT 16.347982 -86.125847 36,000 26 485 0
2018-12-12 21:51:59 GMT 16.334482 -86.132812 36,000 26 484 0
2018-12-12 21:51:48 GMT 16.312546 -86.144325 35,975 26 484 0
2018-12-12 21:51:36 GMT 16.291168 -86.155411 35,975 26 484 0
2018-12-12 21:51:27 GMT 16.267273 -86.167557 35,975 26 484 0
2018-12-12 21:51:16 GMT 16.248550 -86.177193 35,975 26 484 -64
2018-12-12 21:51:01 GMT 16.218800 -86.192551 36,000 26 483 0
2018-12-12 21:50:53 GMT 16.205429 -86.199501 36,000 26 483 0
2018-12-12 21:50:44 GMT 16.183182 -86.210922 36,000 26 483 0
2018-12-12 21:50:33 GMT 16.161913 -86.221779 36,000 26 483 0
2018-12-12 21:50:21 GMT 16.138964 -86.233650 36,000 26 485 128
2018-12-12 21:50:11 GMT 16.119225 -86.244003 35,975 26 486 192
2018-12-12 21:50:01 GMT 16.097076 -86.255348 35,925 26 487 576
2018-12-12 21:49:50 GMT 16.076071 -86.266022 35,800 26 487 1024
2018-12-12 21:49:39 GMT 16.053406 -86.277657 35,625 26 486 1024
2018-12-12 21:49:28 GMT 16.031479 -86.288887 35,450 26 487 1024
2018-12-12 21:49:18 GMT 16.010757 -86.299767 35,250 26 488 1024
2018-12-12 21:49:06 GMT 15.987534 -86.311676 35,025 26 487 1728
2018-12-12 21:48:55 GMT 15.966207 -86.322571 34,725 26 487 1792
2018-12-12 21:48:46 GMT 15.944641 -86.333748 34,425 26 487 1856
2018-12-12 21:48:35 GMT 15.924590 -86.344200 34,125 26 487 1664
2018-12-12 21:48:24 GMT 15.901639 -86.355774 33,825 26 487 1728
2018-12-12 21:48:12 GMT 15.880188 -86.366707 33,525 26 486 1472
2018-12-12 21:48:03 GMT 15.858113 -86.378044 33,275 26 485 1536
2018-12-12 21:47:52 GMT 15.834961 -86.389931 33,000 26 485 1984
2018-12-12 21:47:40 GMT 15.814545 -86.400436 32,650 26 487 1920
2018-12-12 21:47:30 GMT 15.792892 -86.411613 32,350 26 486 1536
2018-12-12 21:47:20 GMT 15.771057 -86.422745 32,075 26 485 1280
2018-12-12 21:47:08 GMT 15.750344 -86.433319 31,875 26 482 1536
2018-12-12 21:46:58 GMT 15.729396 -86.444160 31,600 26 482 1792
2018-12-12 21:46:47 GMT 15.705980 -86.456024 31,275 26 482 1728
2018-12-12 21:46:37 GMT 15.685181 -86.466736 30,950 26 481 1664
2018-12-12 21:46:26 GMT 15.663012 -86.478195 30,675 26 481 1664
2018-12-12 21:46:15 GMT 15.640228 -86.490112 30,400 26 480 1536
2018-12-12 21:46:03 GMT 15.619720 -86.500229 30,150 26 479 1088
2018-12-12 21:45:54 GMT 15.599030 -86.510826 29,975 26 476 1280
2018-12-12 21:45:43 GMT 15.578148 -86.521500 29,725 26 475 2112
2018-12-12 21:45:32 GMT 15.556320 -86.532707 29,300 26 479 3200
2018-12-12 21:45:21 GMT 15.535492 -86.543304 28,750 26 485 2752
2018-12-12 21:45:09 GMT 15.507947 -86.557404 28,275 26 488 1472
2018-12-12 21:45:00 GMT 15.492233 -86.565468 28,075 26 487 1408
2018-12-12 21:44:48 GMT 15.468843 -86.577515 27,825 26 487 1408
2018-12-12 21:44:38 GMT 15.447383 -86.588501 27,575 26 486 1280
2018-12-12 21:44:26 GMT 15.422562 -86.601082 27,325 26 485 1216
2018-12-12 21:44:17 GMT 15.401825 -86.611534 27,150 26 482 1152
2018-12-12 21:44:06 GMT 15.383047 -86.621216 26,975 26 480 1024
2018-12-12 21:43:55 GMT 15.360423 -86.632790 26,775 26 477 1216
2018-12-12 21:43:42 GMT 15.336774 -86.644905 26,525 26 476 1280
2018-12-12 21:43:32 GMT 15.314026 -86.656448 26,300 26 474 1216
2018-12-12 21:43:23 GMT 15.296972 -86.665161 26,125 26 472 1216
2018-12-12 21:43:11 GMT 15.274429 -86.676826 25,900 26 470 1088
2018-12-12 21:43:01 GMT 15.255308 -86.686348 25,725 26 468 1088
2018-12-12 21:42:51 GMT 15.234639 -86.696938 25,550 26 465 1216
2018-12-12 21:42:39 GMT 15.212340 -86.708221 25,350 26 463 1344
2018-12-12 21:42:28 GMT 15.191025 -86.719276 25,075 26 462 1536
2018-12-12 21:42:17 GMT 15.169279 -86.730148 24,800 26 462 1408
2018-12-12 21:42:08 GMT 15.150696 -86.739616 24,600 26 461 1152
2018-12-12 21:41:57 GMT 15.128779 -86.750748 24,400 26 458 1216
2018-12-12 21:41:36 GMT 15.089396 -86.770950 24,075 26 456 1344
2018-12-12 21:41:31 GMT 15.081668 -86.774780 23,875 26 454 1536
2018-12-12 21:41:15 GMT 15.051636 -86.790115 23,700 26 453 1408
2018-12-12 21:41:09 GMT 15.039725 -86.796112 23,375 26 451 1600
2018-12-12 21:40:48 GMT 15.002297 -86.815094 22,850 26 450 1472
2018-12-12 21:40:41 GMT 14.985584 -86.823578 22,650 26 448 1536
2018-12-12 21:40:31 GMT 14.967819 -86.832565 22,400 26 447 1600
2018-12-12 21:40:15 GMT 14.939575 -86.846924 22,025 26 445 1472
2018-12-12 21:40:02 GMT 14.915955 -86.858925 21,750 26 443 1408
2018-12-12 21:39:57 GMT 14.906021 -86.863930 21,625 26 442 1472
2018-12-12 21:39:40 GMT 14.873474 -86.880608 21,300 26 439 1536
2018-12-12 21:39:37 GMT 14.867294 -86.883690 21,125 26 437 1408
2018-12-12 21:39:25 GMT 14.848709 -86.893181 20,900 26 434 1152
2018-12-12 21:38:53 GMT 14.791031 -86.922363 20,275 26 422 1408
2018-12-12 21:38:28 GMT 14.744118 -86.946182 19,675 26 417 1984
2018-12-12 21:38:20 GMT 14.731796 -86.952431 19,450 26 417 2624
2018-12-12 21:38:06 GMT 14.707809 -86.964554 18,900 26 419 1792
2018-12-12 21:37:47 GMT 14.675629 -86.980843 18,475 26 411 1600
2018-12-12 21:37:07 GMT 14.605133 -87.016594 17,075 26 410 2432
2018-12-12 21:36:07 GMT 14.506073 -87.066460 15,025 26 401 2432
2018-12-12 21:35:01 GMT 14.398049 -87.120911 12,975 25 367 1472
2018-12-12 21:34:48 GMT 14.377053 -87.131172 12,675 25 363 1472
2018-12-12 21:34:40 GMT 14.362576 -87.138397 12,475 26 354 1472
2018-12-12 21:34:28 GMT 14.346954 -87.146393 12,200 26 345 1536
2018-12-12 21:34:19 GMT 14.332901 -87.153549 11,975 26 334 1344
2018-12-12 21:34:06 GMT 14.316396 -87.161964 11,725 26 323 1280
2018-12-12 21:33:56 GMT 14.304060 -87.168419 11,525 27 310 1344
2018-12-12 21:33:44 GMT 14.289303 -87.176414 11,300 27 300 1408
2018-12-12 21:33:33 GMT 14.275570 -87.183594 11,050 26 283 1472
2018-12-12 21:33:22 GMT 14.260757 -87.191101 10,750 19 253 2048
2018-12-12 21:33:09 GMT 14.247545 -87.197136 10,500 19 253 2048
2018-12-12 21:33:00 GMT 14.237869 -87.201324 10,225 19 253 2048
2018-12-12 21:32:54 GMT 14.229576 -87.204025 9,975 10 248 2048
2018-12-12 21:32:45 GMT 14.218822 -87.205910 9,700 6 238 1472
2018-12-12 21:32:33 GMT 14.207703 -87.207199 9,425 5 228 1792
2018-12-12 21:32:23 GMT 14.194988 -87.208366 9,100 4 225 2688
2018-12-12 21:32:11 GMT 14.184540 -87.208900 8,675 0 224 3008
2018-12-12 21:31:56 GMT 14.166591 -87.208557 7,825 359 225 3456
2018-12-12 21:31:50 GMT 14.161796 -87.208511 7,600 0 226 2432
2018-12-12 21:31:39 GMT 14.150894 -87.208481 7,300 0 213 1216
2018-12-12 21:31:30 GMT 14.142384 -87.208557 7,125 1 198 1216
2018-12-12 21:31:18 GMT 14.131897 -87.208809 6,900 1 186 1216
2018-12-12 21:31:10 GMT 14.123337 -87.209282 6,725 3 170 1216
2018-12-12 21:30:58 GMT 14.115555 -87.209755 6,525 2 159 1280
We lost coverage of the aircraft here for a total of 84 minutes
2018-12-12 20:06:37 GMT 14.041738 -87.227882 3,450 52 137 -960
2018-12-12 20:06:33 GMT 14.040436 -87.230736 3,525 74 142 -1088
2018-12-12 20:06:20 GMT 14.039246 -87.238930 3,750 96 145 -832
2018-12-12 20:06:12 GMT 14.040436 -87.244751 3,875 112 147 -896
2018-12-12 20:06:02 GMT 14.043041 -87.250046 4,000 119 146 -1024
2018-12-12 20:05:51 GMT 14.047028 -87.257019 4,175 121 145 -960
2018-12-12 20:05:41 GMT 14.050303 -87.262527 4,325 121 143 -576
2018-12-12 20:05:30 GMT 14.054260 -87.268951 4,450 122 140 -832
2018-12-12 20:05:20 GMT 14.058031 -87.274864 4,600 124 141 -896
2018-12-12 20:05:10 GMT 14.061630 -87.280411 4,750 123 144 -1088
2018-12-12 20:04:59 GMT 14.065666 -87.286758 4,925 124 142 -832
2018-12-12 20:04:46 GMT 14.070554 -87.293991 5,125 123 139 -704
2018-12-12 20:04:37 GMT 14.073761 -87.298882 5,225 122 138 -832
2018-12-12 20:04:27 GMT 14.077103 -87.304184 5,375 124 141 -896
2018-12-12 20:04:18 GMT 14.081074 -87.309700 5,525 130 143 -960
2018-12-12 20:04:07 GMT 14.085497 -87.314613 5,675 138 144 -896
2018-12-12 20:03:57 GMT 14.091595 -87.319481 5,850 148 147 -832
2018-12-12 20:03:45 GMT 14.098671 -87.323387 6,000 155 146 -768
2018-12-12 20:03:35 GMT 14.104397 -87.325890 6,150 157 146 -960
2018-12-12 20:03:24 GMT 14.111481 -87.329094 6,325 155 149 -1024
2018-12-12 20:03:14 GMT 14.117385 -87.331818 6,475 155 149 -704
2018-12-12 20:03:02 GMT 14.125299 -87.334900 6,550 164 147 192
2018-12-12 20:02:52 GMT 14.131439 -87.336243 6,550 173 153 -128
2018-12-12 20:02:43 GMT 14.139265 -87.336777 6,575 182 163 0
2018-12-12 20:02:31 GMT 14.147415 -87.336143 6,600 190 173 -192
2018-12-12 20:02:22 GMT 14.156117 -87.334030 6,650 202 183 -320
2018-12-12 20:02:11 GMT 14.164030 -87.330276 6,700 213 195 -192
2018-12-12 20:02:01 GMT 14.171585 -87.324875 6,750 222 199 -128
2018-12-12 20:01:48 GMT 14.180145 -87.316826 6,775 224 204 -192
2018-12-12 20:01:39 GMT 14.186841 -87.310371 6,850 223 208 -1088
2018-12-12 20:01:28 GMT 14.194336 -87.303146 7,050 223 211 -1088
2018-12-12 20:01:19 GMT 14.201202 -87.296844 7,200 222 213 -1024
2018-12-12 20:01:07 GMT 14.209698 -87.289223 7,375 222 215 -1088
2018-12-12 20:00:58 GMT 14.217286 -87.281898 7,550 227 216 -960
2018-12-12 20:00:46 GMT 14.224455 -87.273315 7,725 238 217 -448
2018-12-12 20:00:36 GMT 14.229576 -87.263100 7,775 246 218 -192
2018-12-12 20:00:25 GMT 14.233475 -87.254318 7,825 247 217 -704
2018-12-12 20:00:15 GMT 14.238048 -87.243782 7,950 246 217 -704
2018-12-12 20:00:04 GMT 14.242264 -87.234192 8,075 246 219 -640
2018-12-12 19:59:54 GMT 14.246474 -87.224747 8,175 245 221 -640
2018-12-12 19:59:43 GMT 14.251362 -87.213806 8,300 246 225 -768
2018-12-12 19:59:32 GMT 14.256226 -87.202606 8,450 249 229 -704
2018-12-12 19:59:22 GMT 14.260533 -87.191498 8,550 246 232 -640
We lost coverage of the aircraft here for a total of 7 minutes
2018-12-12 19:52:46 GMT 14.752579 -86.980843 10,725 207 401 -4352
2018-12-12 19:52:35 GMT 14.771491 -86.971191 11,525 207 390 -4672
2018-12-12 19:52:25 GMT 14.788622 -86.962379 12,275 207 386 -3712
2018-12-12 19:52:16 GMT 14.803848 -86.954559 12,800 207 385 -3712
2018-12-12 19:52:04 GMT 14.820277 -86.946091 13,475 207 379 -4160
2018-12-12 19:51:49 GMT 14.847015 -86.932312 14,225 207 386 -1984
2018-12-12 19:51:44 GMT 14.854447 -86.928535 14,400 207 388 -1920
2018-12-12 19:51:32 GMT 14.873199 -86.918961 14,725 207 393 -2240
2018-12-12 19:51:21 GMT 14.892014 -86.909370 15,125 207 396 -2368
2018-12-12 19:51:10 GMT 14.910449 -86.899841 15,650 207 398 -3328
2018-12-12 19:50:57 GMT 14.931956 -86.888565 16,250 207 403 -2752
2018-12-12 19:50:45 GMT 14.949966 -86.879211 16,775 207 404 -2496
2018-12-12 19:50:40 GMT 14.960449 -86.873764 17,050 207 404 -2304
2018-12-12 19:50:27 GMT 14.982558 -86.862419 17,475 207 401 -2368
2018-12-12 19:50:17 GMT 14.998123 -86.854492 17,825 207 402 -2496
2018-12-12 19:50:08 GMT 15.014074 -86.846283 18,200 207 403 -1920
2018-12-12 19:49:56 GMT 15.032975 -86.836479 18,475 207 410 -1216
2018-12-12 19:49:46 GMT 15.052247 -86.826622 18,675 207 419 -1856
2018-12-12 19:49:33 GMT 15.073615 -86.815536 19,050 207 422 -1856
2018-12-12 19:49:23 GMT 15.089539 -86.807266 19,300 207 423 -1920
2018-12-12 19:49:13 GMT 15.108296 -86.797531 19,650 207 423 -2048
2018-12-12 19:49:01 GMT 15.131012 -86.785873 20,050 207 423 -1984
2018-12-12 19:48:52 GMT 15.145294 -86.778595 20,325 207 423 -2048
2018-12-12 19:48:42 GMT 15.164159 -86.768890 20,675 207 425 -2176
2018-12-12 19:48:31 GMT 15.181569 -86.759865 21,025 207 426 -2240
2018-12-12 19:48:18 GMT 15.205399 -86.747566 21,475 207 428 -2176
2018-12-12 19:48:09 GMT 15.222582 -86.738632 21,775 207 431 -2304
2018-12-12 19:47:59 GMT 15.240272 -86.729507 22,175 207 435 -2368
2018-12-12 19:47:48 GMT 15.259591 -86.719551 22,575 207 437 -2304
2018-12-12 19:47:36 GMT 15.279465 -86.709305 22,975 207 441 -2304
2018-12-12 19:47:26 GMT 15.300613 -86.698364 23,375 207 444 -2304
2018-12-12 19:47:16 GMT 15.317093 -86.689789 23,725 207 448 -2304
2018-12-12 19:47:03 GMT 15.341430 -86.677223 24,200 207 452 -2240
2018-12-12 19:46:54 GMT 15.359253 -86.667870 24,550 207 453 -2176
2018-12-12 19:46:44 GMT 15.378845 -86.657700 24,900 207 455 -2368
2018-12-12 19:46:32 GMT 15.400458 -86.646667 25,350 207 454 -2624
2018-12-12 19:46:23 GMT 15.418762 -86.637268 25,775 207 451 -2496
2018-12-12 19:46:12 GMT 15.438766 -86.627052 26,175 207 445 -2432
2018-12-12 19:46:00 GMT 15.458679 -86.616737 26,625 207 443 -3584
2018-12-12 19:45:49 GMT 15.479095 -86.606094 27,150 207 444 -1728
2018-12-12 19:45:39 GMT 15.499009 -86.595810 27,450 207 453 -1664
2018-12-12 19:45:28 GMT 15.518235 -86.585800 27,750 207 457 -2368
2018-12-12 19:45:16 GMT 15.540021 -86.574326 28,225 207 461 -2304
2018-12-12 19:45:08 GMT 15.560211 -86.563881 28,600 207 463 -2304
2018-12-12 19:44:57 GMT 15.580941 -86.553238 29,000 207 464 -2176
2018-12-12 19:44:45 GMT 15.601098 -86.542885 29,375 207 463 -1984
2018-12-12 19:44:34 GMT 15.621964 -86.532028 29,725 207 461 -1344
2018-12-12 19:44:25 GMT 15.641319 -86.521797 29,950 207 457 -1152
2018-12-12 19:44:13 GMT 15.662979 -86.510635 30,175 207 449 -960
2018-12-12 19:44:04 GMT 15.680935 -86.501343 30,300 207 447 -1024
2018-12-12 19:43:53 GMT 15.700673 -86.491096 30,475 207 448 -1024
2018-12-12 19:43:42 GMT 15.719760 -86.481186 30,650 207 449 -1024
2018-12-12 19:43:30 GMT 15.741943 -86.469536 30,825 207 449 -960
2018-12-12 19:43:21 GMT 15.761719 -86.459366 31,000 207 451 -1024
2018-12-12 19:43:10 GMT 15.781082 -86.449341 31,175 207 453 -960
2018-12-12 19:42:58 GMT 15.803192 -86.437874 31,350 207 454 -960
2018-12-12 19:42:49 GMT 15.821045 -86.428482 31,525 207 455 -960
2018-12-12 19:42:37 GMT 15.842658 -86.417328 31,700 207 454 -1088
2018-12-12 19:42:26 GMT 15.861465 -86.407616 31,900 207 453 -1088
2018-12-12 19:42:17 GMT 15.880598 -86.397659 32,075 207 449 -1088
2018-12-12 19:42:05 GMT 15.900382 -86.387360 32,300 207 444 -960
2018-12-12 19:41:56 GMT 15.920059 -86.377113 32,425 207 443 -960
2018-12-12 19:41:45 GMT 15.941025 -86.366272 32,600 207 443 -960
2018-12-12 19:41:33 GMT 15.959131 -86.356903 32,775 207 445 -1024
2018-12-12 19:41:24 GMT 15.980392 -86.345840 32,950 207 445 -1024
2018-12-12 19:41:13 GMT 15.998421 -86.336403 33,125 207 445 -1024
2018-12-12 19:41:02 GMT 16.019531 -86.325409 33,325 207 444 -960
2018-12-12 19:40:52 GMT 16.037758 -86.316048 33,475 207 443 -1024
2018-12-12 19:40:41 GMT 16.058428 -86.305359 33,675 207 441 -1024
2018-12-12 19:40:30 GMT 16.076769 -86.295746 33,850 207 440 -1024
2018-12-12 19:40:19 GMT 16.097717 -86.284744 34,050 207 436 -1024
2018-12-12 19:40:09 GMT 16.117037 -86.274651 34,225 207 436 -1024
2018-12-12 19:39:58 GMT 16.134819 -86.265434 34,400 207 434 -960
2018-12-12 19:39:48 GMT 16.155579 -86.254623 34,550 207 434 -960
2018-12-12 19:39:37 GMT 16.174026 -86.244843 34,725 207 436 -896
2018-12-12 19:39:24 GMT 16.196182 -86.233276 34,875 207 440 -576
2018-12-12 19:39:14 GMT 16.212282 -86.224869 35,000 207 442 0
2018-12-12 19:39:05 GMT 16.234116 -86.213539 35,000 207 443 0
2018-12-12 19:38:53 GMT 16.252304 -86.203979 35,000 207 443 0
2018-12-12 19:38:43 GMT 16.270706 -86.194344 35,000 207 443 64
2018-12-12 19:38:33 GMT 16.292130 -86.183212 34,975 207 444 64
2018-12-12 19:38:20 GMT 16.314148 -86.171700 34,975 207 444 0
2018-12-12 19:38:09 GMT 16.335480 -86.160568 34,975 207 444 0
2018-12-12 19:38:01 GMT 16.350586 -86.152519 34,975 207 445 0
2018-12-12 19:37:50 GMT 16.369629 -86.142639 34,975 207 445 0
2018-12-12 19:37:39 GMT 16.388489 -86.132858 35,000 207 445 0
2018-12-12 19:37:29 GMT 16.411148 -86.121010 35,000 207 445 0
2018-12-12 19:37:18 GMT 16.429075 -86.111526 35,000 207 445 0
2018-12-12 19:37:03 GMT 16.456650 -86.097153 35,000 207 446 0
2018-12-12 19:36:55 GMT 16.469297 -86.090630 35,000 207 446 0
2018-12-12 19:36:46 GMT 16.489975 -86.079811 35,000 207 447 64
2018-12-12 19:36:34 GMT 16.511986 -86.068314 35,000 207 448 0
2018-12-12 19:36:24 GMT 16.527740 -86.059906 35,000 207 447 0
2018-12-12 19:36:13 GMT 16.549601 -86.048500 34,975 207 448 0
2018-12-12 19:36:03 GMT 16.567749 -86.039040 34,975 207 448 0
2018-12-12 19:35:51 GMT 16.589035 -86.027863 34,975 207 449 0
2018-12-12 19:35:40 GMT 16.608810 -86.017456 34,975 207 449 0
2018-12-12 19:35:31 GMT 16.628412 -86.007202 34,975 207 449 0
2018-12-12 19:35:18 GMT 16.650291 -85.995827 34,975 207 449 0
2018-12-12 19:35:09 GMT 16.668541 -85.986259 34,975 207 449 0
2018-12-12 19:34:59 GMT 16.689535 -85.975327 34,975 207 450 0
2018-12-12 19:34:47 GMT 16.709320 -85.964882 34,975 207 450 0
2018-12-12 19:34:36 GMT 16.729111 -85.954430 35,000 207 449 0
2018-12-12 19:34:25 GMT 16.748285 -85.944374 35,000 207 450 64
2018-12-12 19:34:16 GMT 16.769279 -85.933342 34,975 207 451 0
2018-12-12 19:34:05 GMT 16.786690 -85.924072 34,975 207 451 0
2018-12-12 19:33:53 GMT 16.808571 -85.912697 35,000 207 451 0
2018-12-12 19:33:42 GMT 16.829006 -85.901955 35,000 207 452 0
2018-12-12 19:33:33 GMT 16.848999 -85.891403 34,975 207 452 -64
2018-12-12 19:33:21 GMT 16.869274 -85.880814 35,000 207 452 0
2018-12-12 19:33:11 GMT 16.889236 -85.870247 35,000 207 453 0
2018-12-12 19:32:59 GMT 16.912766 -85.857819 35,000 207 453 64
2018-12-12 19:32:41 GMT 16.944550 -85.840988 35,000 207 453 0
2018-12-12 19:32:11 GMT 17.001434 -85.811127 35,000 207 454 -64
2018-12-12 19:32:06 GMT 17.007980 -85.807655 35,000 207 454 0
2018-12-12 19:31:51 GMT 17.038925 -85.791367 35,000 207 453 0
2018-12-12 19:31:43 GMT 17.054459 -85.783211 35,000 207 454 0
2018-12-12 19:31:35 GMT 17.068314 -85.775856 35,000 207 454 0
2018-12-12 19:31:20 GMT 17.096878 -85.760773 35,000 207 455 0
2018-12-12 19:31:14 GMT 17.110601 -85.753586 34,975 207 455 0
2018-12-12 19:30:45 GMT 17.161575 -85.726616 35,000 207 455 64
2018-12-12 19:30:42 GMT 17.167534 -85.723473 34,975 207 455 0
2018-12-12 19:30:31 GMT 17.186966 -85.713257 35,000 207 455 -64
2018-12-12 19:30:19 GMT 17.209763 -85.701263 35,000 207 455 0
2018-12-12 19:30:09 GMT 17.229542 -85.690811 35,000 207 455 0
2018-12-12 19:29:20 GMT 17.322876 -85.641418 35,000 207 453 0
2018-12-12 19:29:16 GMT 17.327766 -85.638870 35,000 207 454 0
2018-12-12 19:24:40 GMT 17.843628 -85.365074 34,975 207 449 0
2018-12-12 19:21:47 GMT 18.166763 -85.192711 35,000 208 453 0
2018-12-12 19:19:59 GMT 18.368162 -85.084915 35,025 208 454 0
2018-12-12 19:19:50 GMT 18.385529 -85.075623 35,025 208 454 0
2018-12-12 19:19:41 GMT 18.402924 -85.066307 35,025 208 454 64
2018-12-12 19:18:58 GMT 18.484077 -85.022743 34,975 208 454 0
2018-12-12 19:16:31 GMT 18.758514 -84.875023 34,975 208 452 0
2018-12-12 19:16:20 GMT 18.778614 -84.864342 34,975 208 452 0
2018-12-12 19:11:41 GMT 19.302383 -84.581139 35,000 208 458 0
2018-12-12 19:11:01 GMT 19.380295 -84.538864 34,975 208 459 0
2018-12-12 19:10:51 GMT 19.398010 -84.529251 34,950 208 459 0
2018-12-12 19:10:39 GMT 19.422318 -84.515862 34,975 208 459 0
2018-12-12 19:10:15 GMT 19.466377 -84.491905 34,975 208 458 0
2018-12-12 19:10:04 GMT 19.486673 -84.480919 34,975 208 458 0
2018-12-12 19:09:58 GMT 19.499542 -84.473923 34,975 208 459 0
2018-12-12 19:09:54 GMT 19.508835 -84.468727 34,975 208 459 0
2018-12-12 19:09:47 GMT 19.519493 -84.462990 34,975 208 459 0
2018-12-12 19:09:37 GMT 19.538544 -84.452591 35,000 208 459 64
2018-12-12 19:09:27 GMT 19.558876 -84.441620 34,975 208 460 0
2018-12-12 19:09:15 GMT 19.579220 -84.430534 34,975 208 461 -64
2018-12-12 19:08:58 GMT 19.613159 -84.412033 34,950 208 461 64
2018-12-12 19:08:50 GMT 19.627304 -84.404327 34,950 208 462 -64
2018-12-12 19:08:44 GMT 19.638885 -84.398048 34,975 208 462 -128
2018-12-12 19:08:34 GMT 19.659988 -84.386375 35,000 208 462 0
2018-12-12 19:08:23 GMT 19.679855 -84.375687 34,975 208 462 0
2018-12-12 19:08:13 GMT 19.700069 -84.364662 35,000 208 462 -64
2018-12-12 19:08:02 GMT 19.719574 -84.354027 35,025 208 463 0
2018-12-12 19:07:50 GMT 19.742477 -84.341438 35,025 208 463 0
2018-12-12 19:07:41 GMT 19.759094 -84.332329 35,025 208 464 0
2018-12-12 19:07:30 GMT 19.780746 -84.320610 35,000 208 465 64
2018-12-12 19:06:53 GMT 19.850006 -84.282600 35,000 208 467 0
2018-12-12 19:06:48 GMT 19.861221 -84.276466 35,000 208 467 0
2018-12-12 19:06:31 GMT 19.893860 -84.258759 35,000 208 468 0
2018-12-12 19:06:27 GMT 19.901779 -84.254448 35,000 208 468 0
2018-12-12 19:06:16 GMT 19.923800 -84.242317 34,975 208 468 0
2018-12-12 19:06:00 GMT 19.954147 -84.225555 35,000 208 468 0
2018-12-12 19:05:09 GMT 20.052841 -84.171555 34,975 208 470 0
2018-12-12 19:05:01 GMT 20.067627 -84.163414 34,975 208 469 0
2018-12-12 19:04:49 GMT 20.089619 -84.151375 34,975 208 469 0
2018-12-12 19:04:41 GMT 20.107590 -84.141586 34,975 208 469 0
2018-12-12 19:04:28 GMT 20.130432 -84.128838 35,000 208 469 0
2018-12-12 19:04:21 GMT 20.146040 -84.120369 35,000 208 469 0
2018-12-12 19:03:44 GMT 20.217499 -84.081070 35,000 208 469 0
2018-12-12 19:03:34 GMT 20.236444 -84.070625 35,000 208 470 0
2018-12-12 19:03:27 GMT 20.251785 -84.062035 35,000 208 470 0
2018-12-12 19:03:15 GMT 20.272522 -84.050659 35,000 208 470 0
2018-12-12 19:03:05 GMT 20.293751 -84.038918 35,000 208 470 0
2018-12-12 19:02:55 GMT 20.311905 -84.028831 35,000 208 470 0
2018-12-12 19:02:42 GMT 20.337322 -84.014847 35,000 208 470 0
2018-12-12 19:02:34 GMT 20.351894 -84.006805 35,000 208 470 0
2018-12-12 19:02:29 GMT 20.361694 -84.001366 35,000 209 469 0
2018-12-12 19:01:27 GMT 20.472464 -83.921867 35,000 221 464 0
2018-12-12 18:59:33 GMT 20.640656 -83.733719 35,000 228 459 0
2018-12-12 18:59:24 GMT 20.654064 -83.718269 34,975 228 458 0
2018-12-12 18:57:42 GMT 20.799261 -83.548981 34,975 228 457 0
2018-12-12 18:57:38 GMT 20.805176 -83.542198 34,975 228 457 0
2018-12-12 18:56:51 GMT 20.872238 -83.463921 35,000 228 457 0
2018-12-12 18:56:34 GMT 20.896555 -83.435371 34,975 228 457 0
2018-12-12 18:56:24 GMT 20.910645 -83.418800 35,000 228 457 0
2018-12-12 18:56:13 GMT 20.927046 -83.399864 35,000 228 458 0
2018-12-12 18:56:03 GMT 20.940685 -83.383934 35,000 228 457 0
2018-12-12 18:55:52 GMT 20.956375 -83.365585 34,975 228 458 0
2018-12-12 18:55:42 GMT 20.970291 -83.349106 35,000 228 457 0
2018-12-12 18:55:31 GMT 20.985901 -83.330513 35,000 228 458 0
2018-12-12 18:55:21 GMT 21.002832 -83.311028 35,000 228 457 0
2018-12-12 18:55:10 GMT 21.016102 -83.295746 35,000 228 457 0
2018-12-12 18:55:00 GMT 21.032207 -83.277077 35,000 228 457 0
2018-12-12 18:54:49 GMT 21.047197 -83.259430 35,000 228 457 0
2018-12-12 18:54:38 GMT 21.062576 -83.241508 35,000 228 457 0
2018-12-12 18:54:28 GMT 21.077225 -83.224739 35,000 228 457 0
2018-12-12 18:54:17 GMT 21.092651 -83.206802 35,000 228 457 64
2018-12-12 18:54:05 GMT 21.108879 -83.187714 35,000 228 457 0
2018-12-12 18:53:55 GMT 21.124056 -83.169960 35,000 228 457 0
2018-12-12 18:53:44 GMT 21.140768 -83.150734 34,975 228 457 0
2018-12-12 18:53:34 GMT 21.153580 -83.135796 35,000 228 457 0
2018-12-12 18:53:24 GMT 21.169352 -83.117577 35,000 228 457 0
2018-12-12 18:53:13 GMT 21.183609 -83.101036 34,975 228 457 0
2018-12-12 18:53:02 GMT 21.199860 -83.081909 34,975 228 457 0
2018-12-12 18:52:52 GMT 21.214228 -83.065437 34,975 228 457 0
2018-12-12 18:52:42 GMT 21.229614 -83.047600 34,975 228 456 0
2018-12-12 18:52:31 GMT 21.244675 -83.030075 34,975 228 456 0
2018-12-12 18:52:20 GMT 21.260330 -83.011696 34,975 228 455 0
2018-12-12 18:52:10 GMT 21.274704 -82.994965 34,975 228 456 0
2018-12-12 18:51:59 GMT 21.289856 -82.977341 34,975 228 455 0
2018-12-12 18:51:49 GMT 21.305563 -82.958931 34,975 228 455 0
2018-12-12 18:51:38 GMT 21.320414 -82.941643 34,975 228 455 -64
2018-12-12 18:51:28 GMT 21.335449 -82.924042 35,000 228 455 0
2018-12-12 18:51:16 GMT 21.350624 -82.906242 34,975 228 455 0
2018-12-12 18:51:07 GMT 21.364918 -82.889610 34,975 228 455 0
2018-12-12 18:50:56 GMT 21.379953 -82.872162 35,000 228 455 0
2018-12-12 18:50:43 GMT 21.399364 -82.849274 35,000 228 455 0
2018-12-12 18:50:35 GMT 21.411003 -82.835846 35,000 228 455 0
2018-12-12 18:50:24 GMT 21.425583 -82.818489 35,000 228 455 0
2018-12-12 18:50:14 GMT 21.440598 -82.801056 35,000 228 455 0
2018-12-12 18:50:03 GMT 21.455704 -82.783478 35,000 228 455 0
2018-12-12 18:47:47 GMT 21.649887 -82.555412 34,975 228 453 0
2018-12-12 18:47:25 GMT 21.680122 -82.519836 34,975 227 452 0
2018-12-12 18:47:21 GMT 21.686554 -82.512619 34,975 227 452 0
2018-12-12 18:47:11 GMT 21.699463 -82.497787 34,975 227 452 0
2018-12-12 18:47:03 GMT 21.711637 -82.483925 34,975 227 452 0
2018-12-12 18:46:24 GMT 21.767176 -82.420250 35,000 227 451 0
2018-12-12 18:46:21 GMT 21.771423 -82.415337 35,000 228 450 0
2018-12-12 18:46:03 GMT 21.796503 -82.386528 35,000 228 450 0
2018-12-12 18:45:58 GMT 21.803787 -82.377983 35,000 227 449 0
2018-12-12 18:45:18 GMT 21.860962 -82.312614 35,000 227 449 0
2018-12-12 18:45:07 GMT 21.877131 -82.294006 35,000 228 449 0
2018-12-12 18:44:57 GMT 21.892075 -82.276817 35,000 228 449 0
2018-12-12 18:44:46 GMT 21.906366 -82.260132 35,000 227 449 0
2018-12-12 18:44:35 GMT 21.922119 -82.242256 35,000 227 449 0
2018-12-12 18:44:25 GMT 21.936718 -82.225548 35,000 227 449 0
2018-12-12 18:44:15 GMT 21.952286 -82.207848 35,000 228 449 0
2018-12-12 18:44:03 GMT 21.966604 -82.191010 35,000 227 448 0
2018-12-12 18:43:53 GMT 21.981968 -82.173256 35,000 228 449 0
2018-12-12 18:43:43 GMT 21.996258 -82.156929 35,000 228 449 0
2018-12-12 18:43:32 GMT 22.011341 -82.139641 35,000 227 448 0
2018-12-12 18:43:22 GMT 22.027863 -82.120651 35,000 228 448 64
2018-12-12 18:43:11 GMT 22.040817 -82.105621 35,000 228 448 0
2018-12-12 18:43:01 GMT 22.056335 -82.087547 35,000 228 447 0
2018-12-12 18:42:50 GMT 22.071167 -82.070564 34,975 228 447 0
2018-12-12 18:42:40 GMT 22.085815 -82.053642 34,975 228 447 0
2018-12-12 18:42:29 GMT 22.100208 -82.036949 34,975 228 446 0
2018-12-12 18:42:18 GMT 22.116037 -82.018585 34,975 228 446 0
2018-12-12 18:42:08 GMT 22.130468 -82.001801 35,000 228 445 0
2018-12-12 18:41:57 GMT 22.145554 -81.984474 34,975 228 445 0
2018-12-12 18:41:45 GMT 22.163473 -81.963707 34,975 228 445 0
2018-12-12 18:41:36 GMT 22.174988 -81.950516 35,000 227 445 0
2018-12-12 18:41:26 GMT 22.190567 -81.932274 35,000 228 445 0
2018-12-12 18:41:15 GMT 22.204697 -81.916008 35,000 228 445 0
2018-12-12 18:41:03 GMT 22.222321 -81.895683 35,000 228 444 0
2018-12-12 18:40:54 GMT 22.233675 -81.882729 34,975 228 444 0
2018-12-12 18:40:43 GMT 22.249968 -81.863609 34,975 228 445 0
2018-12-12 18:40:33 GMT 22.264957 -81.846161 34,975 228 444 0
2018-12-12 18:40:22 GMT 22.279587 -81.829170 34,975 228 445 0
2018-12-12 18:39:50 GMT 22.324356 -81.777283 34,975 228 443 0
2018-12-12 18:39:40 GMT 22.337534 -81.761932 34,975 228 442 0
2018-12-12 18:39:29 GMT 22.353500 -81.743317 34,975 228 443 0
2018-12-12 18:39:18 GMT 22.367477 -81.727348 34,975 228 442 0
2018-12-12 18:38:46 GMT 22.412762 -81.674652 34,975 228 443 0
2018-12-12 18:38:32 GMT 22.432779 -81.651611 34,975 228 442 0
2018-12-12 18:38:11 GMT 22.462372 -81.617378 34,975 228 442 0
2018-12-12 18:35:09 GMT 22.716476 -81.322800 35,000 227 443 0
2018-12-12 18:35:04 GMT 22.723032 -81.315208 35,000 227 443 0
2018-12-12 18:33:37 GMT 22.844879 -81.174232 34,975 227 442 0
2018-12-12 18:33:28 GMT 22.858017 -81.159103 34,975 227 442 0
2018-12-12 18:32:41 GMT 22.925125 -81.081795 34,975 227 440 -64
2018-12-12 18:32:23 GMT 22.950897 -81.052834 34,975 219 444 -128
2018-12-12 18:32:16 GMT 22.962496 -81.042076 34,975 219 444 -128
2018-12-12 18:32:07 GMT 22.974838 -81.031609 34,975 216 445 -64
2018-12-12 18:31:12 GMT 23.079620 -80.981422 35,000 183 468 0
2018-12-12 18:30:38 GMT 23.152679 -80.975929 35,000 177 472 0
2018-12-12 18:30:31 GMT 23.166092 -80.976532 35,000 177 472 0
2018-12-12 18:30:24 GMT 23.184645 -80.977325 35,025 177 472 -64
2018-12-12 18:30:14 GMT 23.207083 -80.978294 35,025 177 472 0
2018-12-12 18:30:02 GMT 23.231195 -80.979309 35,000 177 472 0
2018-12-12 18:29:52 GMT 23.259546 -80.980530 35,000 177 472 -64
2018-12-12 18:29:45 GMT 23.270578 -80.981041 35,025 177 472 -64
2018-12-12 18:29:34 GMT 23.291759 -80.981903 35,025 177 471 64
2018-12-12 18:29:25 GMT 23.313354 -80.982819 35,025 177 472 0
2018-12-12 18:29:04 GMT 23.364475 -80.984955 35,025 177 471 0
2018-12-12 18:28:54 GMT 23.382305 -80.985718 35,025 177 470 128
2018-12-12 18:28:42 GMT 23.408203 -80.986816 35,000 177 470 64
2018-12-12 18:28:24 GMT 23.447800 -80.988464 34,975 177 470 0
2018-12-12 18:28:18 GMT 23.461349 -80.989014 35,000 177 468 64
2018-12-12 18:28:11 GMT 23.474899 -80.989616 35,000 177 468 64
2018-12-12 18:28:08 GMT 23.480717 -80.989838 35,000 177 468 64
2018-12-12 18:28:00 GMT 23.497787 -80.990562 34,975 177 467 0
2018-12-12 18:27:57 GMT 23.505341 -80.990860 34,975 177 467 0
2018-12-12 18:27:48 GMT 23.527967 -80.991821 34,975 177 466 0
2018-12-12 18:27:36 GMT 23.554270 -80.992973 34,975 177 466 0
2018-12-12 18:27:22 GMT 23.583921 -80.994270 34,975 177 465 0
2018-12-12 18:27:14 GMT 23.599182 -80.994926 34,975 177 465 0
2018-12-12 18:27:02 GMT 23.626099 -80.996078 34,975 177 464 0
2018-12-12 18:26:51 GMT 23.648863 -80.997017 34,975 177 463 0
2018-12-12 18:26:38 GMT 23.678192 -80.998230 35,000 177 463 0
2018-12-12 18:26:30 GMT 23.693985 -80.998894 35,000 177 462 0
2018-12-12 18:26:19 GMT 23.717194 -80.999809 35,000 177 462 128
2018-12-12 18:26:06 GMT 23.741920 -81.000847 34,950 177 463 192
2018-12-12 18:25:56 GMT 23.763754 -81.001732 34,925 177 463 896
2018-12-12 18:25:46 GMT 23.788422 -81.002754 34,775 177 462 960
2018-12-12 18:25:35 GMT 23.810446 -81.003647 34,600 177 460 896
2018-12-12 18:25:23 GMT 23.835068 -81.004692 34,400 177 458 1728
2018-12-12 18:25:13 GMT 23.858597 -81.005760 34,025 177 462 3072
2018-12-12 18:25:01 GMT 23.884369 -81.006927 33,425 177 470 3008
2018-12-12 18:24:48 GMT 23.911148 -81.008202 32,850 177 476 2304
2018-12-12 18:24:40 GMT 23.930420 -81.009216 32,550 177 479 1856
2018-12-12 18:24:29 GMT 23.955551 -81.010590 32,225 177 481 1408
2018-12-12 18:24:15 GMT 23.985109 -81.011627 31,975 179 479 1472
2018-12-12 18:24:05 GMT 24.005859 -81.011810 31,675 179 479 1216
2018-12-12 18:23:54 GMT 24.037720 -81.012062 31,375 179 478 1472
2018-12-12 18:23:40 GMT 24.060617 -81.012199 31,100 179 478 1472
2018-12-12 18:23:29 GMT 24.087059 -81.012405 30,850 179 478 1472
2018-12-12 18:23:17 GMT 24.114532 -81.012672 30,525 179 478 1536
2018-12-12 18:23:14 GMT 24.119413 -81.012718 30,475 179 478 1600
2018-12-12 18:23:07 GMT 24.138035 -81.012817 30,275 179 478 1728
2018-12-12 18:22:55 GMT 24.161077 -81.013031 29,975 179 480 1792
2018-12-12 18:22:45 GMT 24.184679 -81.013184 29,650 179 481 1600
2018-12-12 18:22:36 GMT 24.205582 -81.013390 29,425 179 481 1408
2018-12-12 18:22:32 GMT 24.212769 -81.013435 29,325 179 481 1408
2018-12-12 18:22:26 GMT 24.226410 -81.013542 29,200 179 481 1472
2018-12-12 18:22:20 GMT 24.238358 -81.013588 29,075 179 481 1536
2018-12-12 18:22:10 GMT 24.263493 -81.013802 28,200 179 482 1472
2018-12-12 18:22:00 GMT 24.283508 -81.013962 28,575 179 482 1408
2018-12-12 18:21:50 GMT 24.308460 -81.014168 28,200 179 479 896
2018-12-12 18:21:33 GMT 24.344330 -81.014404 28,075 179 482 1344
2018-12-12 18:21:28 GMT 24.358040 -81.014481 27,850 179 482 1088
2018-12-12 18:21:16 GMT 24.381968 -81.014633 27,675 179 480 896
2018-12-12 18:21:08 GMT 24.408688 -81.014740 27,625 179 480 832
2018-12-12 18:21:04 GMT 24.408688 -81.014740 27,500 179 478 960
2018-12-12 18:20:58 GMT 24.423538 -81.014793 27,400 179 477 1024
2018-12-12 18:20:53 GMT 24.431965 -81.014793 27,275 179 477 1024
2018-12-12 18:20:42 GMT 24.460966 -81.014893 27,150 179 473 1024
2018-12-12 18:20:31 GMT 24.482939 -81.015053 26,975 179 473 1024
2018-12-12 18:20:21 GMT 24.505751 -81.014893 26,775 185 469 1280
2018-12-12 18:20:06 GMT 24.534378 -81.010544 26,475 222 441 960
2018-12-12 18:19:44 GMT 24.591684 -80.980278 25,950 222 441 960
2018-12-12 18:19:37 GMT 24.591684 -80.980278 26,000 219 443 960
2018-12-12 18:19:26 GMT 24.610062 -80.962677 25,825 227 436 960
2018-12-12 18:19:21 GMT 24.616013 -80.955910 25,775 227 436 960
2018-12-12 18:19:17 GMT 24.621944 -80.949028 25,700 227 433 1664
2018-12-12 18:19:11 GMT 24.629059 -80.940857 25,625 227 435 1088
2018-12-12 18:19:01 GMT 24.645905 -80.921120 25,400 227 433 1600
2018-12-12 18:18:52 GMT 24.655275 -80.910728 25,200 227 433 1600
2018-12-12 18:18:49 GMT 24.660164 -80.905029 25,125 227 435 1536
2018-12-12 18:18:42 GMT 24.670715 -80.892944 24,950 227 435 1280
2018-12-12 18:18:37 GMT 24.676987 -80.885773 24,850 227 434 1088
2018-12-12 18:18:34 GMT 24.682663 -80.879211 24,775 227 433 960
2018-12-12 18:18:31 GMT 24.684464 -80.876945 24,725 227 433 960
2018-12-12 18:18:26 GMT 24.691544 -80.868477 24,675 227 432 832
2018-12-12 18:18:19 GMT 24.700665 -80.858444 24,575 227 430 896
2018-12-12 18:18:15 GMT 24.707321 -80.850723 24,500 227 430 960
2018-12-12 18:18:11 GMT 24.713287 -80.843658 24,450 227 428 960
2018-12-12 18:18:04 GMT 24.725245 -80.829994 24,300 227 427 960
2018-12-12 18:17:57 GMT 24.730316 -80.824379 24,050 227 426 1024
2018-12-12 18:17:50 GMT 24.741852 -80.811310 24,100 227 425 1216
2018-12-12 18:17:46 GMT 24.746521 -80.805717 24,050 227 425 1280
2018-12-12 18:17:39 GMT 24.757225 -80.793610 23,850 226 424 1408
2018-12-12 18:17:36 GMT 24.761444 -80.789032 23,800 227 424 1344
2018-12-12 18:17:28 GMT 24.772961 -80.775734 23,650 227 423 1088
2018-12-12 18:17:18 GMT 24.785437 -80.761124 23,475 229 420 1408
2018-12-12 18:17:11 GMT 24.794931 -80.749512 23,375 229 419 1536
2018-12-12 18:17:07 GMT 24.800262 -80.743050 23,200 229 419 1984
2018-12-12 18:17:04 GMT 24.803543 -80.738838 23,150 229 419 2112
2018-12-12 18:16:55 GMT 24.814438 -80.725517 22,800 229 422 2624
2018-12-12 18:16:44 GMT 24.829422 -80.707344 22,350 229 427 2112
2018-12-12 18:16:40 GMT 24.833450 -80.702309 22,200 229 427 1920
2018-12-12 18:16:33 GMT 24.844254 -80.689339 22,000 229 428 1664
2018-12-12 18:16:30 GMT 24.847687 -80.685020 21,925 229 428 1536
2018-12-12 18:16:22 GMT 24.858568 -80.671677 21,725 229 427 1408
2018-12-12 18:16:18 GMT 24.864202 -80.664993 21,625 229 426 1280
2018-12-12 18:16:09 GMT 24.875839 -80.650787 21,475 229 424 1344
2018-12-12 18:16:00 GMT 24.887245 -80.636848 21,250 229 423 1664
2018-12-12 18:15:50 GMT 24.901886 -80.619049 20,900 228 422 1536
2018-12-12 18:15:47 GMT 24.906471 -80.613373 20,900 228 422 1536
2018-12-12 18:15:37 GMT 24.916946 -80.600533 20,675 228 421 1664
2018-12-12 18:15:28 GMT 24.929979 -80.584824 20,400 228 421 1600
2018-12-12 18:15:14 GMT 24.946335 -80.565285 20,100 228 418 1472
2018-12-12 18:15:03 GMT 24.961212 -80.547081 19,825 228 416 1664
2018-12-12 18:14:53 GMT 24.975266 -80.531769 19,525 219 420 1536
2018-12-12 18:14:42 GMT 24.994171 -80.516869 19,275 210 424 1280
2018-12-12 18:14:33 GMT 25.009491 -80.508331 19,050 205 424 1216
2018-12-12 18:14:29 GMT 25.013580 -80.506081 19,000 205 423 1216
2018-12-12 18:14:22 GMT 25.027599 -80.499054 18,850 205 420 1216
2018-12-12 18:14:19 GMT 25.034821 -80.495399 18,775 205 418 1280
2018-12-12 18:14:11 GMT 25.047729 -80.488640 18,625 205 416 2048
2018-12-12 18:14:07 GMT 25.054184 -80.485481 18,475 205 416 2368
2018-12-12 18:13:59 GMT 25.067217 -80.478951 18,200 205 418 2752
2018-12-12 18:13:55 GMT 25.076660 -80.474144 17,975 205 420 2240
2018-12-12 18:13:50 GMT 25.086117 -80.469360 17,775 205 420 1856
2018-12-12 18:13:43 GMT 25.094788 -80.464935 17,625 205 419 1472
2018-12-12 18:13:39 GMT 25.105156 -80.459564 17,500 205 417 1344
2018-12-12 18:13:33 GMT 25.115891 -80.454048 17,375 205 415 1216
2018-12-12 18:13:28 GMT 25.124475 -80.449669 17,275 205 413 960
2018-12-12 18:13:22 GMT 25.136486 -80.443604 17,175 205 408 832
2018-12-12 18:13:15 GMT 25.144073 -80.439774 17,100 205 406 1088
2018-12-12 18:13:11 GMT 25.153885 -80.434723 17,000 205 403 1536
2018-12-12 18:13:04 GMT 25.163486 -80.429771 16,875 205 402 1728
2018-12-12 18:12:59 GMT 25.174164 -80.424248 16,700 205 400 1792
2018-12-12 18:12:54 GMT 25.180803 -80.420906 16,575 205 400 1728
2018-12-12 18:12:48 GMT 25.192291 -80.415138 16,400 205 399 1920
2018-12-12 18:12:43 GMT 25.199797 -80.411270 16,275 205 397 1984
2018-12-12 18:12:31 GMT 25.218046 -80.401993 15,875 205 396 2176
2018-12-12 18:12:23 GMT 25.234589 -80.393578 15,550 205 396 2176
2018-12-12 18:12:12 GMT 25.257103 -80.382095 15,125 205 395 2240
2018-12-12 18:11:59 GMT 25.275024 -80.372971 14,800 205 393 1664
2018-12-12 18:11:48 GMT 25.292576 -80.363953 14,425 205 389 1984
2018-12-12 18:11:37 GMT 25.310265 -80.354988 14,050 205 386 2368
2018-12-12 18:11:28 GMT 25.324493 -80.347595 13,725 205 385 2560
2018-12-12 18:11:24 GMT 25.329723 -80.345093 13,600 205 385 2560
2018-12-12 18:11:17 GMT 25.346924 -80.336151 13,150 205 385 2560
2018-12-12 18:11:03 GMT 25.365570 -80.326797 12,700 205 383 2432
2018-12-12 18:10:55 GMT 25.376883 -80.320938 12,400 205 383 2112
2018-12-12 18:10:52 GMT 25.383074 -80.317833 12,275 205 382 1920
2018-12-12 18:10:44 GMT 25.394943 -80.311714 12,075 205 378 1664
2018-12-12 18:10:40 GMT 25.405334 -80.306496 11,900 205 375 1536
2018-12-12 18:10:33 GMT 25.413332 -80.302391 11,775 205 372 1344
2018-12-12 18:10:28 GMT 25.421759 -80.298088 11,650 205 368 1152
2018-12-12 18:10:21 GMT 25.430237 -80.293678 11,575 205 364 1088
2018-12-12 18:10:17 GMT 25.439169 -80.289070 11,475 205 358 1088
2018-12-12 18:10:10 GMT 25.447735 -80.284714 11,375 205 353 1152
2018-12-12 18:10:05 GMT 25.454865 -80.281166 11,275 205 349 1216
2018-12-12 18:10:00 GMT 25.462353 -80.277359 11,200 206 345 1216
2018-12-12 18:09:54 GMT 25.471430 -80.272697 11,075 206 339 1216
2018-12-12 18:09:50 GMT 25.478394 -80.269112 11,000 206 334 1216
2018-12-12 18:09:43 GMT 25.486771 -80.264687 10,875 206 329 1280
2018-12-12 18:09:39 GMT 25.492704 -80.261658 10,775 206 324 1280
2018-12-12 18:09:31 GMT 25.502472 -80.256599 10,650 206 317 1216
2018-12-12 18:09:28 GMT 25.508514 -80.253395 10,575 206 313 1152
2018-12-12 18:09:21 GMT 25.517166 -80.248970 10,450 206 305 1152
2018-12-12 18:09:15 GMT 25.522545 -80.246162 10,375 206 301 1216
2018-12-12 18:09:09 GMT 25.530487 -80.241951 10,250 206 293 1600
2018-12-12 18:09:06 GMT 25.536043 -80.239014 10,150 206 290 2112
2018-12-12 18:08:58 GMT 25.544907 -80.234222 9,900 206 287 2944
2018-12-12 18:08:54 GMT 25.557861 -80.227608 9,525 205 286 2624
2018-12-12 18:08:48 GMT 25.557861 -80.227608 9,350 205 288 2944
2018-12-12 18:08:44 GMT 25.561693 -80.225586 9,200 205 287 2880
2018-12-12 18:08:37 GMT 25.571091 -80.220947 8,850 205 286 2432
2018-12-12 18:08:32 GMT 25.575752 -80.218590 8,725 205 285 2304
2018-12-12 18:08:26 GMT 25.587763 -80.212631 8,275 205 282 3072
2018-12-12 18:08:23 GMT 25.591953 -80.210510 8,100 205 282 3072
2018-12-12 18:08:15 GMT 25.597958 -80.207451 7,875 205 282 3136
2018-12-12 18:08:10 GMT 25.602356 -80.205132 7,750 206 281 3200
2018-12-12 18:08:04 GMT 25.609680 -80.201363 7,325 206 282 3072
2018-12-12 18:08:01 GMT 25.613571 -80.199280 7,175 207 283 2880
2018-12-12 18:07:50 GMT 25.627052 -80.191902 6,775 207 282 256
2018-12-12 18:07:42 GMT 25.635315 -80.187172 6,725 208 281 64
2018-12-12 18:07:39 GMT 25.639576 -80.184700 6,725 209 282 64
2018-12-12 18:07:31 GMT 25.648468 -80.179413 6,725 210 282 256
2018-12-12 18:07:28 GMT 25.652424 -80.176826 6,700 210 282 384
2018-12-12 18:07:19 GMT 25.660492 -80.171761 6,650 211 281 448
2018-12-12 18:07:15 GMT 25.665319 -80.168739 6,625 210 280 320
2018-12-12 18:07:07 GMT 25.677004 -80.161591 6,575 209 279 384
2018-12-12 18:07:04 GMT 25.679306 -80.160118 6,550 208 279 704
2018-12-12 18:06:55 GMT 25.689386 -80.154541 6,450 204 277 960
2018-12-12 18:06:46 GMT 25.700226 -80.149895 6,300 196 274 1408
2018-12-12 18:06:43 GMT 25.704748 -80.148476 6,250 193 273 1472
2018-12-12 18:06:34 GMT 25.716064 -80.146584 6,100 184 272 2176
2018-12-12 18:06:31 GMT 25.717896 -80.146538 5,950 177 269 2240
2018-12-12 18:06:22 GMT 25.728928 -80.147758 5,675 166 256 1792
2018-12-12 18:06:15 GMT 25.738964 -80.151016 5,400 155 245 2624
2018-12-12 18:06:12 GMT 25.741386 -80.152107 5,300 148 241 2560
2018-12-12 18:06:04 GMT 25.748182 -80.156921 4,975 135 236 2944
2018-12-12 18:06:01 GMT 25.750557 -80.159615 4,850 128 233 2880
2018-12-12 18:05:58 GMT 25.752605 -80.162315 4,725 122 231 3072
2018-12-12 18:05:53 GMT 25.755539 -80.167809 4,475 116 230 3584
2018-12-12 18:05:49 GMT 25.757126 -80.171303 4,300 116 230 3584
2018-12-12 18:05:46 GMT 25.758936 -80.175735 4,100 116 231 3456
2018-12-12 18:05:43 GMT 25.760286 -80.178581 3,850 116 232 3328
2018-12-12 18:05:39 GMT 25.761963 -80.182060 3,650 116 232 3264
2018-12-12 18:05:36 GMT 25.763809 -80.186157 3,475 116 231 3264
2018-12-12 18:05:32 GMT 25.765453 -80.189835 3,300 116 232 2944
2018-12-12 18:05:29 GMT 25.769272 -80.198227 3,075 116 230 2240
2018-12-12 18:05:25 GMT 25.769272 -80.198227 2,950 116 228 2176
2018-12-12 18:05:22 GMT 25.770950 -80.201927 2,850 116 225 2176
2018-12-12 18:05:18 GMT 25.771971 -80.204185 2,725 117 222 2304
2018-12-12 18:05:14 GMT 25.774200 -80.208946 2,550 117 219 1728
2018-12-12 18:05:10 GMT 25.775787 -80.212273 2,425 117 206 1024
2018-12-12 18:05:06 GMT 25.777416 -80.215744 2,375 117 207 832
2018-12-12 18:05:03 GMT 25.782120 -80.225845 2,200 116 196 1280
2018-12-12 18:04:56 GMT 25.782120 -80.225845 2,175 117 195 1216
2018-12-12 18:04:52 GMT 25.783840 -80.229530 2,075 116 188 1152
2018-12-12 18:04:45 GMT 25.786589 -80.235588 1,950 117 180 1088
2018-12-12 18:04:41 GMT 25.788450 -80.239479 1,875 117 173 1280
2018-12-12 18:04:33 GMT 25.791010 -80.244972 1,725 117 165 1088
2018-12-12 18:04:29 GMT 25.792740 -80.248566 1,675 117 162 1152
2018-12-12 18:04:22 GMT 25.794596 -80.252380 1,500 118 154 1600

Making use of Plane Finder data

You are free to use the raw flight data, aircraft information and images provided in this report for your own purposes provided the data is correctly attributed to Plane Finder. We ask that you please credit Plane Finder and link to planefinder.net in close proximity to the content.

Optionally one of the following logos (no smaller then 150x24px) can be used and must link to planefinder.net

Embedding the Plane Finder map

You are welcome to embed the Plane Finder playback map on your website to offer visitors a more interactive experience. We suggest using the following HTML code:

<iframe src="//planefinder.net/data/report/AA1531-N9017P-7700-squawk-2018-12-12/map" width="800" height="600" seamless="seamless"></iframe>

Where our data comes from

Plane Finder has a global network of data feeds and antenna radars that receive data broadcast directly from aircraft. The primary technologies used are ADS-B and MLAT. We also show feeds from the FAA and a FLARM glider feed.

Click here to find out more about the Plane Finder network.

How we collect our data